Observation data for Mertzon on 03/09/2018      Previous  Date  Next       Current Mesonet Observations  Soil Data  Daily Summary Page  Observations in Plain Language
KME1 090600Z 19010KT 13/03 A2997 RMK A01 T01250025  RH  051%=      5-min Rain = 0
KME1 090601Z 19011KT 12/03 A2997 RMK A01 T01240025  RH  051%=      5-min Rain = 0
KME1 090602Z 18012G18KT 12/03 A2997 RMK A01 T01240026  RH  051%=      5-min Rain = 0
KME1 090603Z 18013KT 12/03 A2997 RMK A01 T01240027  RH  051%=      5-min Rain = 0
KME1 090604Z 18010KT 13/03 A2997 RMK A01 T01250027  RH  051%=      5-min Rain = 0
KME1 090605Z 18014KT 13/03 A2996 RMK A01 T01250027  RH  051%=      5-min Rain = 0
KME1 090606Z 18014KT 13/03 A2997 RMK A01 T01250028  RH  051%=      5-min Rain = 0
KME1 090607Z 19010KT 13/03 A2997 RMK A01 T01250028  RH  052%=      5-min Rain = 0
KME1 090608Z 18012KT 13/03 A2997 RMK A01 T01250029  RH  052%=      5-min Rain = 0
KME1 090609Z 19011G16KT 13/03 A2997 RMK A01 T01250029  RH  052%=      5-min Rain = 0
KME1 090610Z 18011KT 13/03 A2997 RMK A01 T01250029  RH  052%=      5-min Rain = 0
KME1 090611Z 18014KT 13/03 A2997 RMK A01 T01250029  RH  052%=      5-min Rain = 0
KME1 090612Z 18013KT 13/03 A2997 RMK A01 T01250030  RH  052%=      5-min Rain = 0
KME1 090613Z 18011KT 13/03 A2997 RMK A01 T01250030  RH  052%=      5-min Rain = 0
KME1 090614Z 18010KT 13/03 A2997 RMK A01 T01250030  RH  052%=      5-min Rain = 0
KME1 090615Z 19012KT 13/03 A2997 RMK A01 T01250031  RH  053%=      5-min Rain = 0
KME1 090616Z 19010KT 13/03 A2997 RMK A01 T01250031  RH  053%=      5-min Rain = 0
KME1 090617Z 19013KT 13/03 A2997 RMK A01 T01250032  RH  053%=      5-min Rain = 0
KME1 090618Z 18012G17KT 13/03 A2996 RMK A01 T01250032  RH  053%=      5-min Rain = 0
KME1 090619Z 18012G17KT 13/03 A2996 RMK A01 T01250032  RH  053%=      5-min Rain = 0
KME1 090620Z 18011KT 13/03 A2996 RMK A01 T01250033  RH  053%=      5-min Rain = 0
KME1 090621Z 19012G17KT 13/03 A2996 RMK A01 T01250033  RH  053%=      5-min Rain = 0
KME1 090622Z 19014KT 13/03 A2996 RMK A01 T01250034  RH  054%=      5-min Rain = 0
KME1 090623Z 19013KT 13/04 A2996 RMK A01 T01260035  RH  054%=      5-min Rain = 0
KME1 090624Z 19013KT 13/04 A2996 RMK A01 T01260035  RH  054%=      5-min Rain = 0
KME1 090625Z 18012KT 13/04 A2996 RMK A01 T01270035  RH  054%=      5-min Rain = 0
KME1 090626Z 18013KT 13/04 A2996 RMK A01 T01260036  RH  054%=      5-min Rain = 0
KME1 090627Z 18012KT 13/04 A2996 RMK A01 T01260036  RH  054%=      5-min Rain = 0
KME1 090628Z 18011G16KT 13/04 A2996 RMK A01 T01260036  RH  054%=      5-min Rain = 0
KME1 090629Z 18012KT 13/04 A2996 RMK A01 T01260037  RH  055%=      5-min Rain = 0
KME1 090630Z 18015KT 13/04 A2996 RMK A01 T01260037  RH  055%=      5-min Rain = 0
KME1 090631Z 18013G18KT 13/04 A2996 RMK A01 T01260038  RH  055%=      5-min Rain = 0
KME1 090632Z 18013G18KT 13/04 A2996 RMK A01 T01260038  RH  055%=      5-min Rain = 0
KME1 090633Z 18016KT 13/04 A2996 RMK A01 T01270039  RH  055%=      5-min Rain = 0
KME1 090634Z 18015KT 13/04 A2996 RMK A01 T01270040  RH  055%=      5-min Rain = 0
KME1 090635Z 18015KT 13/04 A2996 RMK A01 T01280040  RH  055%=      5-min Rain = 0
KME1 090636Z 17014KT 13/04 A2996 RMK A01 T01280040  RH  055%=      5-min Rain = 0
KME1 090637Z 19014G20KT 13/04 A2996 RMK A01 T01280040  RH  055%=      5-min Rain = 0
KME1 090638Z 18014G19KT 13/04 A2996 RMK A01 T01280041  RH  055%=      5-min Rain = 0
KME1 090639Z 18013KT 13/04 A2996 RMK A01 T01270041  RH  056%=      5-min Rain = 0
KME1 090640Z 19012KT 13/04 A2996 RMK A01 T01270041  RH  056%=      5-min Rain = 0
KME1 090641Z 18011G16KT 13/04 A2996 RMK A01 T01270041  RH  056%=      5-min Rain = 0
KME1 090642Z 19013G19KT 13/04 A2996 RMK A01 T01260042  RH  056%=      5-min Rain = 0
KME1 090643Z 18013KT 13/04 A2996 RMK A01 T01260042  RH  056%=      5-min Rain = 0
KME1 090644Z 18015G21KT 13/04 A2996 RMK A01 T01260042  RH  057%=      5-min Rain = 0
KME1 090645Z 18014KT 13/04 A2996 RMK A01 T01270043  RH  057%=      5-min Rain = 0
KME1 090646Z 18011KT 13/04 A2996 RMK A01 T01270043  RH  057%=      5-min Rain = 0
KME1 090647Z 19015KT 13/04 A2995 RMK A01 T01260043  RH  057%=      5-min Rain = 0
KME1 090648Z 18012KT 13/04 A2995 RMK A01 T01260043  RH  057%=      5-min Rain = 0
KME1 090649Z 18011G16KT 13/04 A2995 RMK A01 T01260043  RH  057%=      5-min Rain = 0
KME1 090650Z 18012KT 13/04 A2995 RMK A01 T01260044  RH  057%=      5-min Rain = 0
KME1 090651Z 18014KT 13/04 A2995 RMK A01 T01260044  RH  057%=      5-min Rain = 0
KME1 090652Z 18013KT 13/04 A2995 RMK A01 T01260044  RH  058%=      5-min Rain = 0
KME1 090653Z 18015KT 13/05 A2995 RMK A01 T01250045  RH  058%=      5-min Rain = 0
KME1 090654Z 18017KT 13/05 A2995 RMK A01 T01260045  RH  058%=      5-min Rain = 0
KME1 090655Z 19013KT 13/05 A2995 RMK A01 T01260046  RH  058%=      5-min Rain = 0
KME1 090656Z 18011KT 13/05 A2995 RMK A01 T01260046  RH  058%=      5-min Rain = 0
KME1 090657Z 18012KT 13/05 A2995 RMK A01 T01260046  RH  058%=      5-min Rain = 0
KME1 090658Z 18016G21KT 13/05 A2995 RMK A01 T01260046  RH  058%=      5-min Rain = 0
KME1 090659Z 18015KT 13/05 A2995 RMK A01 T01260047  RH  059%=      5-min Rain = 0
KME1 090700Z 18014KT 13/05 A2995 RMK A01 T01260048  RH  059%=      5-min Rain = 0
KME1 090701Z 19011G16KT 13/05 A2995 RMK A01 T01260048  RH  059%=      5-min Rain = 0
KME1 090702Z 19015KT 13/05 A2995 RMK A01 T01260048  RH  059%=      5-min Rain = 0
KME1 090703Z 18014G20KT 13/05 A2995 RMK A01 T01260049  RH  059%=      5-min Rain = 0
KME1 090704Z 18014KT 13/05 A2995 RMK A01 T01260049  RH  059%=      5-min Rain = 0
KME1 090705Z 18013KT 13/05 A2995 RMK A01 T01270049  RH  059%=      5-min Rain = 0
KME1 090706Z 18011KT 13/05 A2995 RMK A01 T01260049  RH  059%=      5-min Rain = 0
KME1 090707Z 18013G20KT 13/05 A2995 RMK A01 T01250049  RH  060%=      5-min Rain = 0
KME1 090708Z 18017KT 13/05 A2995 RMK A01 T01250050  RH  060%=      5-min Rain = 0
KME1 090709Z 18013KT 13/05 A2995 RMK A01 T01250050  RH  060%=      5-min Rain = 0
KME1 090710Z 18014KT 13/05 A2995 RMK A01 T01250050  RH  060%=      5-min Rain = 0
KME1 090711Z 18010G15KT 13/05 A2995 RMK A01 T01250050  RH  060%=      5-min Rain = 0
KME1 090712Z 19014G19KT 13/05 A2995 RMK A01 T01250050  RH  060%=      5-min Rain = 0
KME1 090713Z 18015KT 13/05 A2995 RMK A01 T01250051  RH  061%=      5-min Rain = 0
KME1 090714Z 19014KT 13/05 A2995 RMK A01 T01250051  RH  061%=      5-min Rain = 0
KME1 090715Z 18013KT 12/05 A2995 RMK A01 T01240051  RH  061%=      5-min Rain = 0
KME1 090716Z 18014KT 13/05 A2995 RMK A01 T01250052  RH  061%=      5-min Rain = 0
KME1 090717Z 18017KT 13/05 A2995 RMK A01 T01250052  RH  061%=      5-min Rain = 0
KME1 090718Z 18016KT 13/05 A2995 RMK A01 T01250052  RH  061%=      5-min Rain = 0
KME1 090719Z 19016KT 13/05 A2995 RMK A01 T01250053  RH  061%=      5-min Rain = 0
KME1 090720Z 19014KT 13/05 A2995 RMK A01 T01250053  RH  061%=      5-min Rain = 0
KME1 090721Z 18015KT 13/05 A2995 RMK A01 T01250053  RH  061%=      5-min Rain = 0
KME1 090722Z 19015KT 13/05 A2995 RMK A01 T01250053  RH  062%=      5-min Rain = 0
KME1 090723Z 18013KT 13/05 A2995 RMK A01 T01250053  RH  062%=      5-min Rain = 0
KME1 090724Z 18013G19KT 13/05 A2995 RMK A01 T01250054  RH  062%=      5-min Rain = 0
KME1 090725Z 19011KT 12/05 A2995 RMK A01 T01240053  RH  062%=      5-min Rain = 0
KME1 090726Z 18015KT 12/05 A2995 RMK A01 T01230053  RH  062%=      5-min Rain = 0
KME1 090727Z 18015KT 12/05 A2995 RMK A01 T01230053  RH  062%=      5-min Rain = 0
KME1 090728Z 18014KT 12/05 A2995 RMK A01 T01230054  RH  062%=      5-min Rain = 0
KME1 090729Z 19014KT 12/05 A2995 RMK A01 T01240054  RH  062%=      5-min Rain = 0
KME1 090730Z 18013KT 12/05 A2995 RMK A01 T01230054  RH  063%=      5-min Rain = 0
KME1 090731Z 18015KT 12/05 A2995 RMK A01 T01230054  RH  063%=      5-min Rain = 0
KME1 090732Z 18014G20KT 12/05 A2995 RMK A01 T01230054  RH  063%=      5-min Rain = 0
KME1 090733Z 18014G19KT 12/06 A2995 RMK A01 T01230055  RH  063%=      5-min Rain = 0
KME1 090734Z 18016G21KT 12/06 A2995 RMK A01 T01230055  RH  063%=      5-min Rain = 0
KME1 090735Z 18016KT 12/06 A2995 RMK A01 T01230055  RH  063%=      5-min Rain = 0
KME1 090736Z 18014KT 12/06 A2995 RMK A01 T01230055  RH  063%=      5-min Rain = 0
KME1 090737Z 18014KT 12/06 A2995 RMK A01 T01230055  RH  063%=      5-min Rain = 0
KME1 090738Z 18013KT 12/06 A2995 RMK A01 T01230055  RH  063%=      5-min Rain = 0
KME1 090739Z 19014KT 12/06 A2995 RMK A01 T01220055  RH  063%=      5-min Rain = 0
KME1 090740Z 18014KT 12/06 A2995 RMK A01 T01220055  RH  064%=      5-min Rain = 0
KME1 090741Z 18013G19KT 12/06 A2995 RMK A01 T01220056  RH  064%=      5-min Rain = 0
KME1 090742Z 18014KT 12/06 A2995 RMK A01 T01220056  RH  064%=      5-min Rain = 0
KME1 090743Z 18013KT 12/06 A2995 RMK A01 T01220056  RH  064%=      5-min Rain = 0
KME1 090744Z 18014KT 12/06 A2994 RMK A01 T01220056  RH  064%=      5-min Rain = 0
KME1 090745Z 18015G20KT 12/06 A2994 RMK A01 T01210056  RH  064%=      5-min Rain = 0
KME1 090746Z 18013KT 12/06 A2994 RMK A01 T01210056  RH  064%=      5-min Rain = 0
KME1 090747Z 18013KT 12/06 A2994 RMK A01 T01210056  RH  064%=      5-min Rain = 0
KME1 090748Z 19013KT 12/06 A2994 RMK A01 T01210056  RH  065%=      5-min Rain = 0
KME1 090749Z 18014KT 12/06 A2994 RMK A01 T01210057  RH  065%=      5-min Rain = 0
KME1 090750Z 18014KT 12/06 A2994 RMK A01 T01210057  RH  065%=      5-min Rain = 0
KME1 090751Z 19013KT 12/06 A2994 RMK A01 T01210057  RH  065%=      5-min Rain = 0
KME1 090752Z 18016KT 12/06 A2994 RMK A01 T01210057  RH  065%=      5-min Rain = 0
KME1 090753Z 18018KT 12/06 A2994 RMK A01 T01210058  RH  065%=      5-min Rain = 0
KME1 090754Z 18016KT 12/06 A2994 RMK A01 T01220058  RH  065%=      5-min Rain = 0
KME1 090755Z 19013KT 12/06 A2994 RMK A01 T01220058  RH  065%=      5-min Rain = 0
KME1 090756Z 19016KT 12/06 A2994 RMK A01 T01210058  RH  065%=      5-min Rain = 0
KME1 090757Z 18013KT 12/06 A2994 RMK A01 T01210058  RH  065%=      5-min Rain = 0
KME1 090758Z 19016G22KT 12/06 A2994 RMK A01 T01210058  RH  065%=      5-min Rain = 0
KME1 090759Z 19017G22KT 12/06 A2994 RMK A01 T01210058  RH  065%=      5-min Rain = 0
KME1 090800Z 18017KT 12/06 A2994 RMK A01 T01210058  RH  066%=      5-min Rain = 0
KME1 090801Z 19017G23KT 12/06 A2994 RMK A01 T01210058  RH  066%=      5-min Rain = 0
KME1 090802Z 19016KT 12/06 A2993 RMK A01 T01210058  RH  065%=      5-min Rain = 0
KME1 090803Z 19018KT 12/06 A2993 RMK A01 T01210059  RH  066%=      5-min Rain = 0
KME1 090804Z 19016KT 12/06 A2993 RMK A01 T01210059  RH  066%=      5-min Rain = 0
KME1 090805Z 19017KT 12/06 A2993 RMK A01 T01210059  RH  066%=      5-min Rain = 0
KME1 090806Z 19015KT 12/06 A2993 RMK A01 T01210059  RH  066%=      5-min Rain = 0
KME1 090807Z 19016G21KT 12/06 A2993 RMK A01 T01200059  RH  066%=      5-min Rain = 0
KME1 090808Z 19016KT 12/06 A2993 RMK A01 T01200059  RH  066%=      5-min Rain = 0
KME1 090809Z 19014KT 12/06 A2993 RMK A01 T01200059  RH  066%=      5-min Rain = 0
KME1 090810Z 19016G21KT 12/06 A2993 RMK A01 T01200059  RH  066%=      5-min Rain = 0
KME1 090811Z 18017KT 12/06 A2993 RMK A01 T01190059  RH  067%=      5-min Rain = 0
KME1 090812Z 19015G20KT 12/06 A2993 RMK A01 T01190059  RH  067%=      5-min Rain = 0
KME1 090813Z 19014KT 12/06 A2993 RMK A01 T01190059  RH  067%=      5-min Rain = 0
KME1 090814Z 19018KT 12/06 A2993 RMK A01 T01200060  RH  067%=      5-min Rain = 0
KME1 090815Z 19017KT 12/06 A2993 RMK A01 T01200060  RH  067%=      5-min Rain = 0
KME1 090816Z 19018KT 12/06 A2993 RMK A01 T01200060  RH  067%=      5-min Rain = 0
KME1 090817Z 19016KT 12/06 A2993 RMK A01 T01190060  RH  067%=      5-min Rain = 0
KME1 090818Z 19014KT 12/06 A2993 RMK A01 T01190060  RH  067%=      5-min Rain = 0
KME1 090819Z 18017KT 12/06 A2993 RMK A01 T01190060  RH  067%=      5-min Rain = 0
KME1 090820Z 18015KT 12/06 A2993 RMK A01 T01190060  RH  067%=      5-min Rain = 0
KME1 090821Z 19016G21KT 12/06 A2993 RMK A01 T01180060  RH  067%=      5-min Rain = 0
KME1 090822Z 19013KT 12/06 A2993 RMK A01 T01190061  RH  068%=      5-min Rain = 0
KME1 090823Z 19016KT 12/06 A2993 RMK A01 T01190060  RH  068%=      5-min Rain = 0
KME1 090824Z 19016KT 12/06 A2993 RMK A01 T01180060  RH  068%=      5-min Rain = 0
KME1 090825Z 18017KT 12/06 A2993 RMK A01 T01180061  RH  068%=      5-min Rain = 0
KME1 090826Z 18014KT 12/06 A2993 RMK A01 T01180061  RH  068%=      5-min Rain = 0
KME1 090827Z 19015KT 12/06 A2993 RMK A01 T01180061  RH  068%=      5-min Rain = 0
KME1 090828Z 18014KT 12/06 A2993 RMK A01 T01180061  RH  068%=      5-min Rain = 0
KME1 090829Z 18015KT 12/06 A2993 RMK A01 T01170061  RH  068%=      5-min Rain = 0
KME1 090830Z 18013KT 12/06 A2993 RMK A01 T01170061  RH  068%=      5-min Rain = 0
KME1 090831Z 18013KT 12/06 A2993 RMK A01 T01170061  RH  069%=      5-min Rain = 0
KME1 090832Z 18015KT 12/06 A2993 RMK A01 T01170062  RH  069%=      5-min Rain = 0
KME1 090833Z 18014G21KT 12/06 A2993 RMK A01 T01170062  RH  069%=      5-min Rain = 0
KME1 090834Z 19014KT 12/06 A2992 RMK A01 T01170062  RH  069%=      5-min Rain = 0
KME1 090835Z 18014KT 12/06 A2992 RMK A01 T01170062  RH  069%=      5-min Rain = 0
KME1 090836Z 18015KT 12/06 A2992 RMK A01 T01170062  RH  069%=      5-min Rain = 0
KME1 090837Z 18017KT 12/06 A2992 RMK A01 T01160062  RH  069%=      5-min Rain = 0
KME1 090838Z 18013G18KT 12/06 A2992 RMK A01 T01170063  RH  069%=      5-min Rain = 0
KME1 090839Z 18018KT 12/06 A2992 RMK A01 T01170063  RH  069%=      5-min Rain = 0
KME1 090840Z 18017KT 12/06 A2992 RMK A01 T01170063  RH  069%=      5-min Rain = 0
KME1 090841Z 19015KT 12/06 A2992 RMK A01 T01170063  RH  069%=      5-min Rain = 0
KME1 090842Z 19014G20KT 12/06 A2992 RMK A01 T01170063  RH  069%=      5-min Rain = 0
KME1 090843Z 18016KT 12/06 A2992 RMK A01 T01170063  RH  069%=      5-min Rain = 0
KME1 090844Z 19015KT 12/06 A2992 RMK A01 T01170063  RH  070%=      5-min Rain = 0
KME1 090845Z 19012KT 12/06 A2992 RMK A01 T01170063  RH  070%=      5-min Rain = 0
KME1 090846Z 18018G23KT 12/06 A2992 RMK A01 T01160063  RH  070%=      5-min Rain = 0
KME1 090847Z 19015G20KT 12/06 A2992 RMK A01 T01160064  RH  070%=      5-min Rain = 0
KME1 090848Z 19015KT 12/06 A2992 RMK A01 T01160063  RH  070%=      5-min Rain = 0
KME1 090849Z 19018KT 12/06 A2992 RMK A01 T01160063  RH  070%=      5-min Rain = 0
KME1 090850Z 18017KT 12/06 A2992 RMK A01 T01160064  RH  070%=      5-min Rain = 0
KME1 090851Z 19013G18KT 12/06 A2992 RMK A01 T01160064  RH  070%=      5-min Rain = 0
KME1 090852Z 19014G22KT 12/06 A2992 RMK A01 T01150064  RH  070%=      5-min Rain = 0
KME1 090853Z 19017KT 12/06 A2991 RMK A01 T01150064  RH  071%=      5-min Rain = 0
KME1 090854Z 19015G21KT 12/06 A2991 RMK A01 T01150064  RH  071%=      5-min Rain = 0
KME1 090855Z 19017KT 12/06 A2991 RMK A01 T01150064  RH  071%=      5-min Rain = 0
KME1 090856Z 19016KT 12/07 A2991 RMK A01 T01150065  RH  071%=      5-min Rain = 0
KME1 090857Z 19015KT 12/07 A2991 RMK A01 T01150065  RH  071%=      5-min Rain = 0
KME1 090858Z 19014G20KT 12/07 A2991 RMK A01 T01160065  RH  071%=      5-min Rain = 0
KME1 090859Z 19017KT 12/07 A2991 RMK A01 T01150065  RH  071%=      5-min Rain = 0
KME1 090900Z 18016G21KT 12/07 A2991 RMK A01 T01160066  RH  071%=      5-min Rain = 0
KME1 090901Z 19012KT 12/07 A2991 RMK A01 T01150065  RH  071%=      5-min Rain = 0
KME1 090902Z 19014KT 12/07 A2991 RMK A01 T01150065  RH  072%=      5-min Rain = 0
KME1 090903Z 19015KT 11/07 A2991 RMK A01 T01140066  RH  072%=      5-min Rain = 0
KME1 090904Z 19015G22KT 11/07 A2991 RMK A01 T01140066  RH  072%=      5-min Rain = 0
KME1 090905Z 18015G21KT 11/07 A2991 RMK A01 T01140066  RH  072%=      5-min Rain = 0
KME1 090906Z 19017KT 11/07 A2991 RMK A01 T01140066  RH  072%=      5-min Rain = 0
KME1 090907Z 19014KT 12/07 A2991 RMK A01 T01150067  RH  072%=      5-min Rain = 0
KME1 090908Z 19014KT 12/07 A2991 RMK A01 T01150066  RH  072%=      5-min Rain = 0
KME1 090909Z 19012KT 12/07 A2991 RMK A01 T01150066  RH  072%=      5-min Rain = 0
KME1 090910Z 19016G23KT 11/07 A2991 RMK A01 T01140067  RH  073%=      5-min Rain = 0
KME1 090911Z 18015G21KT 12/07 A2991 RMK A01 T01150067  RH  073%=      5-min Rain = 0
KME1 090912Z 19014KT 12/07 A2991 RMK A01 T01150067  RH  073%=      5-min Rain = 0
KME1 090913Z 18015KT 12/07 A2991 RMK A01 T01150067  RH  073%=      5-min Rain = 0
KME1 090914Z 18012KT 12/07 A2991 RMK A01 T01150067  RH  073%=      5-min Rain = 0
KME1 090915Z 18015KT 11/07 A2991 RMK A01 T01140067  RH  073%=      5-min Rain = 0
KME1 090916Z 18015KT 11/07 A2991 RMK A01 T01140068  RH  073%=      5-min Rain = 0
KME1 090917Z 19016KT 11/07 A2991 RMK A01 T01140068  RH  073%=      5-min Rain = 0
KME1 090918Z 19015KT 11/07 A2991 RMK A01 T01140068  RH  073%=      5-min Rain = 0
KME1 090919Z 19015KT 11/07 A2991 RMK A01 T01140068  RH  073%=      5-min Rain = 0
KME1 090920Z 18016KT 11/07 A2991 RMK A01 T01140068  RH  073%=      5-min Rain = 0
KME1 090921Z 18015KT 11/07 A2991 RMK A01 T01140068  RH  073%=      5-min Rain = 0
KME1 090922Z 18014G19KT 11/07 A2991 RMK A01 T01140069  RH  074%=      5-min Rain = 0
KME1 090923Z 18013KT 11/07 A2991 RMK A01 T01140069  RH  074%=      5-min Rain = 0
KME1 090924Z 18014KT 11/07 A2991 RMK A01 T01140069  RH  074%=      5-min Rain = 0
KME1 090925Z 18012KT 11/07 A2991 RMK A01 T01140069  RH  074%=      5-min Rain = 0
KME1 090926Z 18014KT 11/07 A2991 RMK A01 T01130069  RH  074%=      5-min Rain = 0
KME1 090927Z 19013G18KT 11/07 A2991 RMK A01 T01130069  RH  074%=      5-min Rain = 0
KME1 090928Z 19014KT 11/07 A2991 RMK A01 T01130070  RH  074%=      5-min Rain = 0
KME1 090929Z 18014G19KT 11/07 A2991 RMK A01 T01130069  RH  074%=      5-min Rain = 0
KME1 090930Z 18012KT 11/07 A2991 RMK A01 T01130070  RH  074%=      5-min Rain = 0
KME1 090931Z 18013G18KT 11/07 A2991 RMK A01 T01130069  RH  075%=      5-min Rain = 0
KME1 090932Z 18011KT 11/07 A2991 RMK A01 T01130070  RH  075%=      5-min Rain = 0
KME1 090933Z 19012KT 11/07 A2991 RMK A01 T01120069  RH  075%=      5-min Rain = 0
KME1 090934Z 19014KT 11/07 A2991 RMK A01 T01120070  RH  075%=      5-min Rain = 0
KME1 090935Z 19013KT 11/07 A2991 RMK A01 T01120070  RH  075%=      5-min Rain = 0
KME1 090936Z 19013KT 11/07 A2991 RMK A01 T01120070  RH  075%=      5-min Rain = 0
KME1 090937Z 19012KT 11/07 A2991 RMK A01 T01120070  RH  075%=      5-min Rain = 0
KME1 090938Z 19015KT 11/07 A2991 RMK A01 T01120070  RH  075%=      5-min Rain = 0
KME1 090939Z 19013KT 11/07 A2991 RMK A01 T01120070  RH  076%=      5-min Rain = 0
KME1 090940Z 19015KT 11/07 A2991 RMK A01 T01120071  RH  076%=      5-min Rain = 0
KME1 090941Z 19015KT 11/07 A2991 RMK A01 T01130071  RH  076%=      5-min Rain = 0
KME1 090942Z 19012KT 11/07 A2991 RMK A01 T01130071  RH  075%=      5-min Rain = 0
KME1 090943Z 19014KT 11/07 A2991 RMK A01 T01120071  RH  076%=      5-min Rain = 0
KME1 090944Z 19014KT 11/07 A2991 RMK A01 T01120071  RH  076%=      5-min Rain = 0
KME1 090945Z 18013KT 11/07 A2991 RMK A01 T01120071  RH  076%=      5-min Rain = 0
KME1 090946Z 19012KT 11/07 A2991 RMK A01 T01120071  RH  076%=      5-min Rain = 0
KME1 090947Z 19013KT 11/07 A2991 RMK A01 T01120071  RH  076%=      5-min Rain = 0
KME1 090948Z 19013KT 11/07 A2991 RMK A01 T01120072  RH  076%=      5-min Rain = 0
KME1 090949Z 19013KT 11/07 A2991 RMK A01 T01120072  RH  076%=      5-min Rain = 0
KME1 090950Z 19013KT 11/07 A2991 RMK A01 T01110071  RH  076%=      5-min Rain = 0
KME1 090951Z 19012KT 11/07 A2991 RMK A01 T01110072  RH  077%=      5-min Rain = 0
KME1 090952Z 18014KT 11/07 A2991 RMK A01 T01110072  RH  077%=      5-min Rain = 0
KME1 090953Z 19013G20KT 11/07 A2991 RMK A01 T01110072  RH  077%=      5-min Rain = 0
KME1 090954Z 19015KT 11/07 A2991 RMK A01 T01110072  RH  077%=      5-min Rain = 0
KME1 090955Z 19012G17KT 11/07 A2991 RMK A01 T01110072  RH  077%=      5-min Rain = 0
KME1 090956Z 19016KT 11/07 A299 RMK A01 T01110072  RH  077%=      5-min Rain = 0
KME1 090957Z 19013G18KT 11/07 A2991 RMK A01 T01110072  RH  077%=      5-min Rain = 0
KME1 090958Z 18012G19KT 11/07 A2991 RMK A01 T01110073  RH  077%=      5-min Rain = 0
KME1 090959Z 19013KT 11/07 A2991 RMK A01 T01110072  RH  077%=      5-min Rain = 0
KME1 091000Z 19014G19KT 11/07 A2991 RMK A01 T01110073  RH  077%=      5-min Rain = 0
KME1 091001Z 18013KT 11/07 A2991 RMK A01 T01110073  RH  077%=      5-min Rain = 0
KME1 091002Z 19015KT 11/07 A2991 RMK A01 T01110073  RH  077%=      5-min Rain = 0
KME1 091003Z 18012KT 11/07 A2991 RMK A01 T01110073  RH  077%=      5-min Rain = 0
KME1 091004Z 19014KT 11/07 A2991 RMK A01 T01110073  RH  077%=      5-min Rain = 0
KME1 091005Z 19012KT 11/07 A2991 RMK A01 T01110073  RH  078%=      5-min Rain = 0
KME1 091006Z 19011G17KT 11/07 A2991 RMK A01 T01110074  RH  078%=      5-min Rain = 0
KME1 091007Z 19016KT 11/07 A2991 RMK A01 T01110074  RH  078%=      5-min Rain = 0
KME1 091008Z 19012KT 11/07 A2991 RMK A01 T01110073  RH  078%=      5-min Rain = 0
KME1 091009Z 19013KT 11/07 A2991 RMK A01 T01110073  RH  078%=      5-min Rain = 0
KME1 091010Z 19010KT 11/07 A2991 RMK A01 T01100073  RH  078%=      5-min Rain = 0
KME1 091011Z 19011KT 11/07 A2991 RMK A01 T01100073  RH  078%=      5-min Rain = 0
KME1 091012Z 19013KT 11/07 A2991 RMK A01 T01100074  RH  078%=      5-min Rain = 0
KME1 091013Z 18012KT 11/07 A2991 RMK A01 T01090074  RH  079%=      5-min Rain = 0
KME1 091014Z 19010KT 11/07 A2991 RMK A01 T01090074  RH  079%=      5-min Rain = 0
KME1 091015Z 19009G14KT 11/07 A2991 RMK A01 T01090073  RH  079%=      5-min Rain = 0
KME1 091016Z 18011KT 11/07 A2991 RMK A01 T01090074  RH  079%=      5-min Rain = 0
KME1 091017Z 19011KT 11/07 A2991 RMK A01 T01090074  RH  079%=      5-min Rain = 0
KME1 091018Z 18014KT 11/07 A2991 RMK A01 T01090074  RH  079%=      5-min Rain = 0
KME1 091019Z 19012G17KT 11/07 A2991 RMK A01 T01090074  RH  079%=      5-min Rain = 0
KME1 091020Z 18009KT 11/07 A2991 RMK A01 T01090074  RH  079%=      5-min Rain = 0
KME1 091021Z 18011KT 11/07 A2991 RMK A01 T01090074  RH  079%=      5-min Rain = 0
KME1 091022Z 19014KT 11/08 A299 RMK A01 T01090075  RH  079%=      5-min Rain = 0
KME1 091023Z 19011KT 11/08 A299 RMK A01 T01090075  RH  079%=      5-min Rain = 0
KME1 091024Z 19013KT 11/08 A299 RMK A01 T01090075  RH  079%=      5-min Rain = 0
KME1 091025Z 19012KT 11/08 A299 RMK A01 T01090075  RH  079%=      5-min Rain = 0
KME1 091026Z 19010KT 11/08 A2991 RMK A01 T01090075  RH  079%=      5-min Rain = 0
KME1 091027Z 19010KT 11/08 A2991 RMK A01 T01090075  RH  080%=      5-min Rain = 0
KME1 091028Z 19013G19KT 11/08 A299 RMK A01 T01080075  RH  080%=      5-min Rain = 0
KME1 091029Z 20012G17KT 11/08 A299 RMK A01 T01090075  RH  080%=      5-min Rain = 0
KME1 091030Z 20011KT 11/08 A2991 RMK A01 T01090076  RH  080%=      5-min Rain = 0
KME1 091031Z 20016KT 11/08 A2991 RMK A01 T01090076  RH  080%=      5-min Rain = 0
KME1 091032Z 19015KT 11/08 A299 RMK A01 T01100076  RH  080%=      5-min Rain = 0
KME1 091033Z 19012G18KT 11/08 A299 RMK A01 T01100076  RH  080%=      5-min Rain = 0
KME1 091034Z 19014KT 11/08 A299 RMK A01 T01100076  RH  080%=      5-min Rain = 0
KME1 091035Z 19016KT 11/08 A299 RMK A01 T01100077  RH  080%=      5-min Rain = 0
KME1 091036Z 20013G18KT 11/08 A299 RMK A01 T01100077  RH  080%=      5-min Rain = 0
KME1 091037Z 19013KT 11/08 A299 RMK A01 T01100076  RH  080%=      5-min Rain = 0
KME1 091038Z 19012KT 11/08 A299 RMK A01 T01100076  RH  080%=      5-min Rain = 0
KME1 091039Z 19013KT 11/08 A299 RMK A01 T01090076  RH  080%=      5-min Rain = 0
KME1 091040Z 20011KT 11/08 A299 RMK A01 T01090076  RH  080%=      5-min Rain = 0
KME1 091041Z 20014KT 11/08 A299 RMK A01 T01090077  RH  081%=      5-min Rain = 0
KME1 091042Z 19015G21KT 11/08 A299 RMK A01 T01090077  RH  080%=      5-min Rain = 0
KME1 091043Z 19016KT 11/08 A299 RMK A01 T01090077  RH  081%=      5-min Rain = 0
KME1 091044Z 19014KT 11/08 A299 RMK A01 T01100077  RH  080%=      5-min Rain = 0
KME1 091045Z 19013KT 11/08 A299 RMK A01 T01100077  RH  080%=      5-min Rain = 0
KME1 091046Z 19014KT 11/08 A299 RMK A01 T01090077  RH  080%=      5-min Rain = 0
KME1 091047Z 19012KT 11/08 A299 RMK A01 T01090077  RH  081%=      5-min Rain = 0
KME1 091048Z 19013KT 11/08 A299 RMK A01 T01090077  RH  081%=      5-min Rain = 0
KME1 091049Z 19014KT 11/08 A299 RMK A01 T01090078  RH  081%=      5-min Rain = 0
KME1 091050Z 19013KT 11/08 A299 RMK A01 T01090078  RH  081%=      5-min Rain = 0
KME1 091051Z 19014KT 11/08 A299 RMK A01 T01090077  RH  081%=      5-min Rain = 0
KME1 091052Z 19012KT 11/08 A299 RMK A01 T01080078  RH  081%=      5-min Rain = 0
KME1 091053Z 19015G21KT 11/08 A299 RMK A01 T01080077  RH  081%=      5-min Rain = 0
KME1 091054Z 19016KT 11/08 A2989 RMK A01 T01080078  RH  081%=      5-min Rain = 0
KME1 091055Z 19013G18KT 11/08 A2989 RMK A01 T01090078  RH  081%=      5-min Rain = 0
KME1 091056Z 19015G21KT 11/08 A2989 RMK A01 T01090078  RH  081%=      5-min Rain = 0
KME1 091057Z 20016KT 11/08 A2989 RMK A01 T01090078  RH  081%=      5-min Rain = 0
KME1 091058Z 19014G19KT 11/08 A2989 RMK A01 T01090079  RH  081%=      5-min Rain = 0
KME1 091059Z 19014G19KT 11/08 A2989 RMK A01 T01090078  RH  081%=      5-min Rain = 0
KME1 091100Z 19016KT 11/08 A2989 RMK A01 T01090079  RH  082%=      5-min Rain = 0
KME1 091101Z 19016KT 11/08 A2989 RMK A01 T01090078  RH  082%=      5-min Rain = 0
KME1 091102Z 19015G20KT 11/08 A2989 RMK A01 T01090079  RH  082%=      5-min Rain = 0
KME1 091103Z 19012KT 11/08 A2989 RMK A01 T01090079  RH  081%=      5-min Rain = 0
KME1 091104Z 19013G20KT 11/08 A2989 RMK A01 T01090078  RH  082%=      5-min Rain = 0
KME1 091105Z 19014KT 11/08 A2989 RMK A01 T01080079  RH  082%=      5-min Rain = 0
KME1 091106Z 19015KT 11/08 A2989 RMK A01 T01090079  RH  082%=      5-min Rain = 0
KME1 091107Z 19016KT 11/08 A2989 RMK A01 T01090079  RH  082%=      5-min Rain = 0
KME1 091108Z 19013KT 11/08 A2989 RMK A01 T01090079  RH  082%=      5-min Rain = 0
KME1 091109Z 19015G20KT 11/08 A2989 RMK A01 T01090079  RH  082%=      5-min Rain = 0
KME1 091110Z 19013KT 11/08 A2989 RMK A01 T01090080  RH  082%=      5-min Rain = 0
KME1 091111Z 19012G17KT 11/08 A2989 RMK A01 T01090079  RH  082%=      5-min Rain = 0
KME1 091112Z 19013KT 11/08 A2989 RMK A01 T01080080  RH  082%=      5-min Rain = 0
KME1 091113Z 19012KT 11/08 A2989 RMK A01 T01080080  RH  082%=      5-min Rain = 0
KME1 091114Z 20014KT 11/08 A2989 RMK A01 T01080080  RH  082%=      5-min Rain = 0
KME1 091115Z 19013KT 11/08 A2989 RMK A01 T01080080  RH  082%=      5-min Rain = 0
KME1 091116Z 19013KT 11/08 A2989 RMK A01 T01080080  RH  083%=      5-min Rain = 0
KME1 091117Z 19013KT 11/08 A2989 RMK A01 T01090080  RH  083%=      5-min Rain = 0
KME1 091118Z 20015G20KT 11/08 A2989 RMK A01 T01080080  RH  083%=      5-min Rain = 0
KME1 091119Z 20014G19KT 11/08 A2989 RMK A01 T01080080  RH  083%=      5-min Rain = 0
KME1 091120Z 20014KT 11/08 A2989 RMK A01 T01090080  RH  083%=      5-min Rain = 0
KME1 091121Z 19016G21KT 11/08 A2989 RMK A01 T01080080  RH  083%=      5-min Rain = 0
KME1 091122Z 19015G21KT 11/08 A2989 RMK A01 T01080080  RH  083%=      5-min Rain = 0
KME1 091123Z 19015KT 11/08 A2989 RMK A01 T01090081  RH  083%=      5-min Rain = 0
KME1 091124Z 19014KT 11/08 A2989 RMK A01 T01090080  RH  083%=      5-min Rain = 0
KME1 091125Z 19013G18KT 11/08 A2989 RMK A01 T01090080  RH  083%=      5-min Rain = 0
KME1 091126Z 19013G18KT 11/08 A2989 RMK A01 T01080080  RH  083%=      5-min Rain = 0
KME1 091127Z 19014G19KT 11/08 A2989 RMK A01 T01080081  RH  083%=      5-min Rain = 0
KME1 091128Z 19016KT 11/08 A2989 RMK A01 T01080081  RH  083%=      5-min Rain = 0
KME1 091129Z 19014KT 11/08 A2989 RMK A01 T01080081  RH  083%=      5-min Rain = 0
KME1 091130Z 19014KT 11/08 A2989 RMK A01 T01080081  RH  083%=      5-min Rain = 0
KME1 091131Z 19013KT 11/08 A2989 RMK A01 T01080081  RH  083%=      5-min Rain = 0
KME1 091132Z 19015KT 11/08 A2989 RMK A01 T01070080  RH  083%=      5-min Rain = 0
KME1 091133Z 20017KT 11/08 A2989 RMK A01 T01080081  RH  084%=      5-min Rain = 0
KME1 091134Z 19018KT 11/08 A2989 RMK A01 T01080082  RH  084%=      5-min Rain = 0
KME1 091135Z 20014KT 11/08 A2989 RMK A01 T01080081  RH  083%=      5-min Rain = 0
KME1 091136Z 19015KT 11/08 A2989 RMK A01 T01080081  RH  083%=      5-min Rain = 0
KME1 091137Z 19016G21KT 11/08 A2989 RMK A01 T01080081  RH  083%=      5-min Rain = 0
KME1 091138Z 19016G21KT 11/08 A2989 RMK A01 T01080081  RH  083%=      5-min Rain = 0
KME1 091139Z 19015G20KT 11/08 A2989 RMK A01 T01080082  RH  084%=      5-min Rain = 0
KME1 091140Z 19016KT 11/08 A2989 RMK A01 T01080082  RH  084%=      5-min Rain = 0
KME1 091141Z 20019KT 11/08 A2989 RMK A01 T01080082  RH  084%=      5-min Rain = 0
KME1 091142Z 19016G21KT 11/08 A2989 RMK A01 T01080082  RH  084%=      5-min Rain = 0
KME1 091143Z 20017KT 11/08 A2989 RMK A01 T01090082  RH  084%=      5-min Rain = 0
KME1 091144Z 19018KT 11/08 A2989 RMK A01 T01090082  RH  084%=      5-min Rain = 0
KME1 091145Z 20014KT 11/08 A2989 RMK A01 T01080082  RH  084%=      5-min Rain = 0
KME1 091146Z 20017KT 11/08 A2989 RMK A01 T01080082  RH  084%=      5-min Rain = 0
KME1 091147Z 20017KT 11/08 A2989 RMK A01 T01080082  RH  084%=      5-min Rain = 0
KME1 091148Z 19016G21KT 11/08 A2989 RMK A01 T01080082  RH  084%=      5-min Rain = 0
KME1 091149Z 19016KT 11/08 A2989 RMK A01 T01080082  RH  084%=      5-min Rain = 0
KME1 091150Z 19014G20KT 11/08 A2989 RMK A01 T01080082  RH  084%=      5-min Rain = 0
KME1 091151Z 19014G20KT 11/08 A2989 RMK A01 T01080082  RH  084%=      5-min Rain = 0
KME1 091152Z 19016G22KT 11/08 A2989 RMK A01 T01080082  RH  084%=      5-min Rain = 0
KME1 091153Z 19014G19KT 11/08 A2989 RMK A01 T01080083  RH  084%=      5-min Rain = 0
KME1 091154Z 19016KT 11/08 A2989 RMK A01 T01080082  RH  084%=      5-min Rain = 0
KME1 091155Z 19015KT 11/08 A2989 RMK A01 T01080083  RH  084%=      5-min Rain = 0
KME1 091156Z 19014G20KT 11/08 A2989 RMK A01 T01080082  RH  084%=      5-min Rain = 0
KME1 091157Z 20015KT 11/08 A2989 RMK A01 T01080083  RH  084%=      5-min Rain = 0
KME1 091158Z 19013KT 11/08 A2989 RMK A01 T01080083  RH  085%=      5-min Rain = 0
KME1 091159Z 19013KT 11/08 A2989 RMK A01 T01080083  RH  085%=      5-min Rain = 0
KME1 091200Z 19016KT 11/08 A2989 RMK A01 T01070082  RH  085%=      5-min Rain = 0
KME1 091201Z 19014KT 11/08 A2989 RMK A01 T01070083  RH  085%=      5-min Rain = 0
KME1 091202Z 19014G19KT 11/08 A2989 RMK A01 T01060082  RH  085%=      5-min Rain = 0
KME1 091203Z 19016KT 11/08 A2989 RMK A01 T01070083  RH  085%=      5-min Rain = 0
KME1 091204Z 19017KT 11/08 A2989 RMK A01 T01070083  RH  085%=      5-min Rain = 0
KME1 091205Z 19015KT 11/08 A2989 RMK A01 T01070083  RH  085%=      5-min Rain = 0
KME1 091206Z 19017KT 11/08 A2989 RMK A01 T01070083  RH  085%=      5-min Rain = 0
KME1 091207Z 19015KT 11/08 A2989 RMK A01 T01070083  RH  085%=      5-min Rain = 0
KME1 091208Z 19013KT 11/08 A2989 RMK A01 T01070083  RH  085%=      5-min Rain = 0
KME1 091209Z 19013G19KT 11/08 A2989 RMK A01 T01070083  RH  085%=      5-min Rain = 0
KME1 091210Z 19013KT 11/08 A2989 RMK A01 T01070083  RH  085%=      5-min Rain = 0
KME1 091211Z 19012G18KT 11/08 A2989 RMK A01 T01060082  RH  085%=      5-min Rain = 0
KME1 091212Z 19014KT 11/08 A2989 RMK A01 T01060082  RH  086%=      5-min Rain = 0
KME1 091213Z 19015KT 11/08 A2989 RMK A01 T01060083  RH  086%=      5-min Rain = 0
KME1 091214Z 19015KT 11/08 A2989 RMK A01 T01060083  RH  086%=      5-min Rain = 0
KME1 091215Z 19014G20KT 11/08 A2989 RMK A01 T01060083  RH  086%=      5-min Rain = 0
KME1 091216Z 19017KT 11/08 A2989 RMK A01 T01060083  RH  086%=      5-min Rain = 0
KME1 091217Z 19018KT 11/08 A2989 RMK A01 T01070084  RH  086%=      5-min Rain = 0
KME1 091218Z 19015KT 11/08 A2989 RMK A01 T01080084  RH  086%=      5-min Rain = 0
KME1 091219Z 19014G19KT 11/08 A2989 RMK A01 T01080084  RH  085%=      5-min Rain = 0
KME1 091220Z 19016KT 11/08 A2989 RMK A01 T01070084  RH  085%=      5-min Rain = 0
KME1 091221Z 18015KT 11/08 A2989 RMK A01 T01070084  RH  086%=      5-min Rain = 0
KME1 091222Z 19014KT 11/08 A2989 RMK A01 T01070084  RH  086%=      5-min Rain = 0
KME1 091223Z 19014KT 11/08 A2989 RMK A01 T01070084  RH  086%=      5-min Rain = 0
KME1 091224Z 19014KT 11/08 A2989 RMK A01 T01070084  RH  086%=      5-min Rain = 0
KME1 091225Z 19012KT 11/08 A2989 RMK A01 T01070084  RH  086%=      5-min Rain = 0
KME1 091226Z 19015KT 11/08 A2989 RMK A01 T01070084  RH  086%=      5-min Rain = 0
KME1 091227Z 19012KT 11/08 A2989 RMK A01 T01060084  RH  086%=      5-min Rain = 0
KME1 091228Z 19015KT 11/08 A2989 RMK A01 T01060084  RH  086%=      5-min Rain = 0
KME1 091229Z 19014KT 11/08 A2989 RMK A01 T01060084  RH  086%=      5-min Rain = 0
KME1 091230Z 19014KT 11/08 A2989 RMK A01 T01060084  RH  086%=      5-min Rain = 0
KME1 091231Z 19013KT 11/08 A2989 RMK A01 T01060084  RH  086%=      5-min Rain = 0
KME1 091232Z 20013KT 11/08 A2989 RMK A01 T01060084  RH  086%=      5-min Rain = 0
KME1 091233Z 19015KT 11/08 A2989 RMK A01 T01060084  RH  086%=      5-min Rain = 0
KME1 091234Z 20011KT 11/08 A2989 RMK A01 T01060084  RH  086%=      5-min Rain = 0
KME1 091235Z 19011KT 11/08 A299 RMK A01 T01060084  RH  086%=      5-min Rain = 0
KME1 091236Z 19014KT 11/08 A2989 RMK A01 T01060084  RH  086%=      5-min Rain = 0
KME1 091237Z 19010KT 11/08 A299 RMK A01 T01050084  RH  087%=      5-min Rain = 0
KME1 091238Z 19013KT 11/08 A299 RMK A01 T01050084  RH  087%=      5-min Rain = 0
KME1 091239Z 19010KT 11/08 A299 RMK A01 T01050084  RH  087%=      5-min Rain = 0
KME1 091240Z 19011G16KT 11/08 A299 RMK A01 T01050084  RH  087%=      5-min Rain = 0
KME1 091241Z 19010KT 10/08 A299 RMK A01 T01040083  RH  087%=      5-min Rain = 0
KME1 091242Z 19011KT 10/08 A299 RMK A01 T01040084  RH  087%=      5-min Rain = 0
KME1 091243Z 19011KT 10/08 A299 RMK A01 T01040084  RH  087%=      5-min Rain = 0
KME1 091244Z 19013G20KT 10/08 A299 RMK A01 T01040084  RH  087%=      5-min Rain = 0
KME1 091245Z 19012KT 10/08 A299 RMK A01 T01040084  RH  087%=      5-min Rain = 0
KME1 091246Z 19013G19KT 11/08 A299 RMK A01 T01050084  RH  087%=      5-min Rain = 0
KME1 091247Z 19012KT 11/08 A299 RMK A01 T01050084  RH  087%=      5-min Rain = 0
KME1 091248Z 19014KT 11/08 A299 RMK A01 T01050084  RH  087%=      5-min Rain = 0
KME1 091249Z 19012KT 11/08 A299 RMK A01 T01050084  RH  087%=      5-min Rain = 0
KME1 091250Z 19012KT 11/08 A299 RMK A01 T01050084  RH  087%=      5-min Rain = 0
KME1 091251Z 19011KT 11/08 A299 RMK A01 T01050084  RH  087%=      5-min Rain = 0
KME1 091252Z 19014KT 10/08 A299 RMK A01 T01040084  RH  087%=      5-min Rain = 0
KME1 091253Z 19013KT 10/08 A299 RMK A01 T01040084  RH  087%=      5-min Rain = 0
KME1 091254Z 19013KT 10/08 A299 RMK A01 T01040084  RH  087%=      5-min Rain = 0
KME1 091255Z 19013KT 10/08 A299 RMK A01 T01040084  RH  087%=      5-min Rain = 0
KME1 091256Z 19012KT 10/09 A299 RMK A01 T01040085  RH  087%=      5-min Rain = 0
KME1 091257Z 19014G20KT 10/08 A299 RMK A01 T01040084  RH  087%=      5-min Rain = 0
KME1 091258Z 19014G19KT 10/09 A299 RMK A01 T01040085  RH  088%=      5-min Rain = 0
KME1 091259Z 19012KT 11/08 A299 RMK A01 T01050084  RH  087%=      5-min Rain = 0
KME1 091300Z 19012KT 11/08 A299 RMK A01 T01050084  RH  087%=      5-min Rain = 0
KME1 091301Z 19014KT 11/09 A299 RMK A01 T01050085  RH  087%=      5-min Rain = 0
KME1 091302Z 19012KT 11/09 A299 RMK A01 T01050085  RH  088%=      5-min Rain = 0
KME1 091303Z 19012KT 11/09 A299 RMK A01 T01050085  RH  087%=      5-min Rain = 0
KME1 091304Z 19013KT 10/09 A299 RMK A01 T01040085  RH  088%=      5-min Rain = 0
KME1 091305Z 19012G18KT 10/09 A299 RMK A01 T01040085  RH  088%=      5-min Rain = 0
KME1 091306Z 19010KT 11/09 A299 RMK A01 T01050085  RH  088%=      5-min Rain = 0
KME1 091307Z 19014KT 11/09 A299 RMK A01 T01050085  RH  088%=      5-min Rain = 0
KME1 091308Z 19012KT 11/09 A299 RMK A01 T01050085  RH  088%=      5-min Rain = 0
KME1 091309Z 20009G16KT 11/09 A299 RMK A01 T01050085  RH  088%=      5-min Rain = 0
KME1 091310Z 19013KT 11/09 A2991 RMK A01 T01050085  RH  088%=      5-min Rain = 0
KME1 091311Z 20014KT 11/09 A2991 RMK A01 T01050086  RH  088%=      5-min Rain = 0
KME1 091312Z 19011KT 11/09 A2991 RMK A01 T01060086  RH  087%=      5-min Rain = 0
KME1 091313Z 19012KT 11/09 A2991 RMK A01 T01060086  RH  087%=      5-min Rain = 0
KME1 091314Z 19012KT 11/09 A2991 RMK A01 T01060086  RH  087%=      5-min Rain = 0
KME1 091315Z 19012KT 11/09 A2991 RMK A01 T01060086  RH  087%=      5-min Rain = 0
KME1 091316Z 19011KT 11/09 A2991 RMK A01 T01060085  RH  087%=      5-min Rain = 0
KME1 091317Z 19012KT 11/09 A2991 RMK A01 T01060086  RH  087%=      5-min Rain = 0
KME1 091318Z 19011KT 11/09 A2991 RMK A01 T01060086  RH  087%=      5-min Rain = 0
KME1 091319Z 19010KT 11/09 A2991 RMK A01 T01070086  RH  087%=      5-min Rain = 0
KME1 091320Z 19011KT 11/09 A2991 RMK A01 T01070086  RH  087%=      5-min Rain = 0
KME1 091321Z 19011KT 11/09 A2991 RMK A01 T01070086  RH  087%=      5-min Rain = 0
KME1 091322Z 19013KT 11/09 A2991 RMK A01 T01070086  RH  087%=      5-min Rain = 0
KME1 091323Z 19012KT 11/09 A2991 RMK A01 T01080086  RH  087%=      5-min Rain = 0
KME1 091324Z 19011KT 11/09 A2991 RMK A01 T01070086  RH  087%=      5-min Rain = 0
KME1 091325Z 19014G19KT 11/09 A2991 RMK A01 T01080086  RH  087%=      5-min Rain = 0
KME1 091326Z 18010KT 11/09 A2991 RMK A01 T01080087  RH  087%=      5-min Rain = 0
KME1 091327Z 18012KT 11/09 A2991 RMK A01 T01090087  RH  086%=      5-min Rain = 0
KME1 091328Z 19012KT 11/09 A2991 RMK A01 T01090087  RH  086%=      5-min Rain = 0
KME1 091329Z 19012KT 11/09 A2991 RMK A01 T01090087  RH  086%=      5-min Rain = 0
KME1 091330Z 19012KT 11/09 A2991 RMK A01 T01090087  RH  086%=      5-min Rain = 0
KME1 091331Z 19010KT 11/09 A2991 RMK A01 T01100087  RH  086%=      5-min Rain = 0
KME1 091332Z 19011KT 11/09 A2991 RMK A01 T01100087  RH  086%=      5-min Rain = 0
KME1 091333Z 19012KT 11/09 A2991 RMK A01 T01100088  RH  086%=      5-min Rain = 0
KME1 091334Z 19013KT 11/09 A2991 RMK A01 T01110087  RH  086%=      5-min Rain = 0
KME1 091335Z 19011KT 11/09 A2991 RMK A01 T01110088  RH  086%=      5-min Rain = 0
KME1 091336Z 19015KT 11/09 A2991 RMK A01 T01110088  RH  086%=      5-min Rain = 0
KME1 091337Z 19014KT 11/09 A2991 RMK A01 T01110088  RH  085%=      5-min Rain = 0
KME1 091338Z 19014KT 11/09 A2991 RMK A01 T01110088  RH  085%=      5-min Rain = 0
KME1 091339Z 19015KT 11/09 A2991 RMK A01 T01120088  RH  085%=      5-min Rain = 0
KME1 091340Z 19012KT 11/09 A2991 RMK A01 T01120088  RH  085%=      5-min Rain = 0
KME1 091341Z 19012KT 11/09 A2991 RMK A01 T01120088  RH  085%=      5-min Rain = 0
KME1 091342Z 19014KT 11/09 A2991 RMK A01 T01120088  RH  085%=      5-min Rain = 0
KME1 091343Z 19011KT 11/09 A2991 RMK A01 T01120088  RH  085%=      5-min Rain = 0
KME1 091344Z 19013G19KT 11/09 A2991 RMK A01 T01120088  RH  086%=      5-min Rain = 0
KME1 091345Z 19014KT 11/09 A2991 RMK A01 T01120088  RH  086%=      5-min Rain = 0
KME1 091346Z 19015KT 11/09 A2991 RMK A01 T01120089  RH  086%=      5-min Rain = 0
KME1 091347Z 19011G16KT 11/09 A2991 RMK A01 T01120088  RH  086%=      5-min Rain = 0
KME1 091348Z 19013G19KT 11/09 A2991 RMK A01 T01120088  RH  085%=      5-min Rain = 0
KME1 091349Z 20016KT 11/09 A2991 RMK A01 T01120088  RH  085%=      5-min Rain = 0
KME1 091350Z 20015KT 11/09 A2991 RMK A01 T01120089  RH  085%=      5-min Rain = 0
KME1 091351Z 20013KT 11/09 A2991 RMK A01 T01130089  RH  085%=      5-min Rain = 0
KME1 091352Z 19012KT 11/09 A2991 RMK A01 T01130089  RH  085%=      5-min Rain = 0
KME1 091353Z 20015G20KT 11/09 A2991 RMK A01 T01130089  RH  085%=      5-min Rain = 0
KME1 091354Z 20015KT 11/09 A2991 RMK A01 T01130089  RH  085%=      5-min Rain = 0
KME1 091355Z 20012KT 11/09 A2991 RMK A01 T01140089  RH  085%=      5-min Rain = 0
KME1 091356Z 19011KT 11/09 A2991 RMK A01 T01140090  RH  085%=      5-min Rain = 0
KME1 091357Z 19014KT 12/09 A2991 RMK A01 T01150090  RH  084%=      5-min Rain = 0
KME1 091358Z 19015G20KT 12/09 A2991 RMK A01 T01160090  RH  084%=      5-min Rain = 0
KME1 091359Z 20014KT 12/09 A2991 RMK A01 T01160090  RH  084%=      5-min Rain = 0
KME1 091400Z 20015KT 12/09 A2991 RMK A01 T01160090  RH  084%=      5-min Rain = 0
KME1 091401Z 20014KT 12/09 A2991 RMK A01 T01170090  RH  084%=      5-min Rain = 0
KME1 091402Z 19014G20KT 12/09 A2991 RMK A01 T01170090  RH  083%=      5-min Rain = 0
KME1 091403Z 20014G21KT 12/09 A2991 RMK A01 T01180090  RH  083%=      5-min Rain = 0
KME1 091404Z 20016G21KT 12/09 A2991 RMK A01 T01190091  RH  083%=      5-min Rain = 0
KME1 091405Z 19011KT 12/09 A2991 RMK A01 T01190091  RH  083%=      5-min Rain = 0
KME1 091406Z 20014G20KT 12/09 A2991 RMK A01 T01200091  RH  083%=      5-min Rain = 0
KME1 091407Z 20011KT 12/09 A2991 RMK A01 T01200091  RH  082%=      5-min Rain = 0
KME1 091408Z 19014G19KT 12/09 A2991 RMK A01 T01210091  RH  082%=      5-min Rain = 0
KME1 091409Z 19014KT 12/09 A2991 RMK A01 T01220092  RH  082%=      5-min Rain = 0
KME1 091410Z 19015KT 12/09 A2991 RMK A01 T01220092  RH  081%=      5-min Rain = 0
KME1 091411Z 19016G21KT 12/09 A2991 RMK A01 T01220091  RH  081%=      5-min Rain = 0
KME1 091412Z 19015KT 12/09 A2991 RMK A01 T01230092  RH  081%=      5-min Rain = 0
KME1 091413Z 20013KT 12/09 A2991 RMK A01 T01230091  RH  081%=      5-min Rain = 0
KME1 091414Z 19017KT 12/09 A2991 RMK A01 T01240092  RH  081%=      5-min Rain = 0
KME1 091415Z 19015KT 12/09 A2991 RMK A01 T01240092  RH  081%=      5-min Rain = 0
KME1 091416Z 19015G22KT 12/09 A2991 RMK A01 T01240092  RH  081%=      5-min Rain = 0
KME1 091417Z 20014G19KT 13/09 A2991 RMK A01 T01250092  RH  081%=      5-min Rain = 0
KME1 091418Z 19012G17KT 13/09 A2991 RMK A01 T01260093  RH  080%=      5-min Rain = 0
KME1 091419Z 19015KT 13/09 A2991 RMK A01 T01260093  RH  080%=      5-min Rain = 0
KME1 091420Z 20017KT 13/09 A2991 RMK A01 T01270093  RH  080%=      5-min Rain = 0
KME1 091421Z 19015KT 13/09 A2991 RMK A01 T01270093  RH  080%=      5-min Rain = 0
KME1 091422Z 19016KT 13/09 A2991 RMK A01 T01270092  RH  079%=      5-min Rain = 0
KME1 091423Z 19016G22KT 13/09 A2991 RMK A01 T01270093  RH  079%=      5-min Rain = 0
KME1 091424Z 19016G21KT 13/09 A2991 RMK A01 T01270093  RH  079%=      5-min Rain = 0
KME1 091425Z 20016KT 13/09 A2991 RMK A01 T01280093  RH  079%=      5-min Rain = 0
KME1 091426Z 19015KT 13/09 A2991 RMK A01 T01280093  RH  079%=      5-min Rain = 0
KME1 091427Z 20013KT 13/09 A2991 RMK A01 T01290093  RH  079%=      5-min Rain = 0
KME1 091428Z 19012G17KT 13/09 A2991 RMK A01 T01300094  RH  079%=      5-min Rain = 0
KME1 091429Z 20014G19KT 13/09 A2991 RMK A01 T01320094  RH  078%=      5-min Rain = 0
KME1 091430Z 19015KT 13/09 A2991 RMK A01 T01320094  RH  077%=      5-min Rain = 0
KME1 091431Z 19011KT 13/09 A2991 RMK A01 T01320094  RH  077%=      5-min Rain = 0
KME1 091432Z 19015G20KT 13/09 A2991 RMK A01 T01330094  RH  077%=      5-min Rain = 0
KME1 091433Z 19017KT 13/09 A2991 RMK A01 T01340094  RH  077%=      5-min Rain = 0
KME1 091434Z 20018KT 13/09 A2991 RMK A01 T01330094  RH  077%=      5-min Rain = 0
KME1 091435Z 20017KT 13/09 A2991 RMK A01 T01330093  RH  077%=      5-min Rain = 0
KME1 091436Z 19019KT 13/09 A2991 RMK A01 T01330093  RH  077%=      5-min Rain = 0
KME1 091437Z 20017G22KT 13/09 A2991 RMK A01 T01330093  RH  077%=      5-min Rain = 0
KME1 091438Z 20011G17KT 13/09 A2991 RMK A01 T01330093  RH  077%=      5-min Rain = 0
KME1 091439Z 19013G18KT 13/09 A2991 RMK A01 T01340094  RH  077%=      5-min Rain = 0
KME1 091440Z 21016G22KT 14/10 A2991 RMK A01 T01360095  RH  076%=      5-min Rain = 0
KME1 091441Z 19013KT 14/10 A2991 RMK A01 T01360095  RH  076%=      5-min Rain = 0
KME1 091442Z 20013G18KT 14/10 A2992 RMK A01 T01370095  RH  076%=      5-min Rain = 0
KME1 091443Z 19013G19KT 14/10 A2991 RMK A01 T01380095  RH  075%=      5-min Rain = 0
KME1 091444Z 19017KT 14/10 A2991 RMK A01 T01390095  RH  075%=      5-min Rain = 0
KME1 091445Z 19015KT 14/10 A2991 RMK A01 T01390095  RH  075%=      5-min Rain = 0
KME1 091446Z 20018KT 14/10 A2991 RMK A01 T01390095  RH  075%=      5-min Rain = 0
KME1 091447Z 19014G19KT 14/10 A2991 RMK A01 T01400095  RH  074%=      5-min Rain = 0
KME1 091448Z 20016KT 14/10 A2991 RMK A01 T01400095  RH  074%=      5-min Rain = 0
KME1 091449Z 20014KT 14/10 A2991 RMK A01 T01400095  RH  074%=      5-min Rain = 0
KME1 091450Z 19014KT 14/10 A2991 RMK A01 T01410095  RH  074%=      5-min Rain = 0
KME1 091451Z 20015KT 14/10 A2991 RMK A01 T01410095  RH  074%=      5-min Rain = 0
KME1 091452Z 19017G22KT 14/10 A2991 RMK A01 T01400095  RH  074%=      5-min Rain = 0
KME1 091453Z 19018G24KT 14/09 A2991 RMK A01 T01390094  RH  074%=      5-min Rain = 0
KME1 091454Z 19016KT 14/10 A2991 RMK A01 T01390095  RH  075%=      5-min Rain = 0
KME1 091455Z 18018G23KT 14/10 A2991 RMK A01 T01400095  RH  074%=      5-min Rain = 0
KME1 091456Z 19018KT 14/10 A2991 RMK A01 T01400095  RH  074%=      5-min Rain = 0
KME1 091457Z 19016G21KT 14/09 A2991 RMK A01 T01400094  RH  074%=      5-min Rain = 0
KME1 091458Z 19016KT 14/10 A2991 RMK A01 T01390095  RH  074%=      5-min Rain = 0
KME1 091459Z 19017G23KT 14/10 A2991 RMK A01 T01400095  RH  074%=      5-min Rain = 0
KME1 091500Z 19016KT 14/10 A2991 RMK A01 T01410095  RH  074%=      5-min Rain = 0
KME1 091501Z 19016G22KT 14/10 A2991 RMK A01 T01410095  RH  074%=      5-min Rain = 0
KME1 091502Z 19016G22KT 14/10 A2991 RMK A01 T01400095  RH  074%=      5-min Rain = 0
KME1 091503Z 19018KT 14/10 A2991 RMK A01 T01400095  RH  074%=      5-min Rain = 0
KME1 091504Z 19019G24KT 14/10 A2991 RMK A01 T01400095  RH  074%=      5-min Rain = 0
KME1 091505Z 18018KT 14/10 A2992 RMK A01 T01400095  RH  074%=      5-min Rain = 0
KME1 091506Z 19018KT 14/10 A2991 RMK A01 T01400095  RH  074%=      5-min Rain = 0
KME1 091507Z 19017KT 14/09 A2992 RMK A01 T01400094  RH  074%=      5-min Rain = 0
KME1 091508Z 19016KT 14/10 A2991 RMK A01 T01410095  RH  074%=      5-min Rain = 0
KME1 091509Z 20012G20KT 14/10 A2991 RMK A01 T01410095  RH  074%=      5-min Rain = 0
KME1 091510Z 19013KT 14/10 A2991 RMK A01 T01430096  RH  073%=      5-min Rain = 0
KME1 091511Z 20013KT 14/10 A2991 RMK A01 T01440096  RH  073%=      5-min Rain = 0
KME1 091512Z 20012G17KT 14/10 A2991 RMK A01 T01440096  RH  073%=      5-min Rain = 0
KME1 091513Z 20016G21KT 14/10 A2991 RMK A01 T01430095  RH  073%=      5-min Rain = 0
KME1 091514Z 19016KT 14/10 A2992 RMK A01 T01430095  RH  073%=      5-min Rain = 0
KME1 091515Z 20013KT 14/10 A2992 RMK A01 T01430095  RH  073%=      5-min Rain = 0
KME1 091516Z 20015KT 14/10 A2992 RMK A01 T01430095  RH  073%=      5-min Rain = 0
KME1 091517Z 20016KT 14/10 A2992 RMK A01 T01440095  RH  072%=      5-min Rain = 0
KME1 091518Z 19012KT 14/10 A2992 RMK A01 T01440095  RH  072%=      5-min Rain = 0
KME1 091519Z 20011KT 15/10 A2991 RMK A01 T01460096  RH  072%=      5-min Rain = 0
KME1 091520Z 20015KT 15/10 A2991 RMK A01 T01480096  RH  071%=      5-min Rain = 0
KME1 091521Z 19013KT 15/10 A2992 RMK A01 T01480095  RH  071%=      5-min Rain = 0
KME1 091522Z 20013G18KT 15/10 A2992 RMK A01 T01490096  RH  071%=      5-min Rain = 0
KME1 091523Z 20014KT 15/10 A2992 RMK A01 T01500096  RH  070%=      5-min Rain = 0
KME1 091524Z 20014KT 15/10 A2992 RMK A01 T01500096  RH  070%=      5-min Rain = 0
KME1 091525Z 20012G19KT 15/10 A2992 RMK A01 T01510096  RH  070%=      5-min Rain = 0
KME1 091526Z 20017KT 15/10 A2992 RMK A01 T01520096  RH  069%=      5-min Rain = 0
KME1 091527Z 20015G20KT 15/10 A2992 RMK A01 T01510095  RH  069%=      5-min Rain = 0
KME1 091528Z 19015KT 15/10 A2992 RMK A01 T01500095  RH  070%=      5-min Rain = 0
KME1 091529Z 19018G23KT 15/10 A2991 RMK A01 T01510095  RH  069%=      5-min Rain = 0
KME1 091530Z 19020KT 15/10 A2991 RMK A01 T01520095  RH  069%=      5-min Rain = 0
KME1 091531Z 20014KT 15/09 A2991 RMK A01 T01510094  RH  069%=      5-min Rain = 0
KME1 091532Z 20017G23KT 15/10 A2991 RMK A01 T01530096  RH  069%=      5-min Rain = 0
KME1 091533Z 19018KT 15/10 A2991 RMK A01 T01540095  RH  068%=      5-min Rain = 0
KME1 091534Z 20014KT 15/10 A2991 RMK A01 T01540095  RH  068%=      5-min Rain = 0
KME1 091535Z 19015KT 16/10 A2991 RMK A01 T01560096  RH  067%=      5-min Rain = 0
KME1 091536Z 19020KT 16/10 A2991 RMK A01 T01580096  RH  067%=      5-min Rain = 0
KME1 091537Z 20017KT 16/10 A2992 RMK A01 T01580095  RH  066%=      5-min Rain = 0
KME1 091538Z 20014G20KT 16/10 A2991 RMK A01 T01580096  RH  066%=      5-min Rain = 0
KME1 091539Z 20015G20KT 16/10 A2991 RMK A01 T01580096  RH  066%=      5-min Rain = 0
KME1 091540Z 20015G21KT 16/10 A2991 RMK A01 T01590095  RH  066%=      5-min Rain = 0
KME1 091541Z 19022KT 16/10 A2991 RMK A01 T01590095  RH  066%=      5-min Rain = 0
KME1 091542Z 19018KT 16/09 A2991 RMK A01 T01570094  RH  066%=      5-min Rain = 0
KME1 091543Z 20018KT 16/09 A2991 RMK A01 T01560094  RH  066%=      5-min Rain = 0
KME1 091544Z 19016KT 16/09 A2991 RMK A01 T01560094  RH  066%=      5-min Rain = 0
KME1 091545Z 20016G22KT 16/09 A2991 RMK A01 T01570094  RH  066%=      5-min Rain = 0
KME1 091546Z 20018KT 16/09 A2991 RMK A01 T01570094  RH  066%=      5-min Rain = 0
KME1 091547Z 20018G23KT 16/09 A2991 RMK A01 T01570094  RH  066%=      5-min Rain = 0
KME1 091548Z 20017KT 16/09 A2991 RMK A01 T01570094  RH  066%=      5-min Rain = 0
KME1 091549Z 20014G19KT 16/10 A2991 RMK A01 T01580095  RH  066%=      5-min Rain = 0
KME1 091550Z 20015KT 16/10 A2991 RMK A01 T01590095  RH  066%=      5-min Rain = 0
KME1 091551Z 19016KT 16/10 A2991 RMK A01 T01600095  RH  066%=      5-min Rain = 0
KME1 091552Z 19014KT 16/10 A2991 RMK A01 T01610096  RH  065%=      5-min Rain = 0
KME1 091553Z 20017KT 16/10 A2991 RMK A01 T01630096  RH  065%=      5-min Rain = 0
KME1 091554Z 20018KT 16/10 A2991 RMK A01 T01630095  RH  064%=      5-min Rain = 0
KME1 091555Z 20018KT 16/10 A2991 RMK A01 T01620095  RH  064%=      5-min Rain = 0
KME1 091556Z 20016KT 16/09 A2991 RMK A01 T01620094  RH  064%=      5-min Rain = 0
KME1 091557Z 21018KT 16/09 A2991 RMK A01 T01620094  RH  064%=      5-min Rain = 0
KME1 091558Z 20017G22KT 16/10 A2991 RMK A01 T01630095  RH  064%=      5-min Rain = 0
KME1 091559Z 20016G21KT 16/10 A2991 RMK A01 T01640095  RH  063%=      5-min Rain = 0
KME1 091600Z 20016G21KT 16/10 A2991 RMK A01 T01640096  RH  064%=      5-min Rain = 0
KME1 091601Z 20018KT 16/09 A2991 RMK A01 T01640094  RH  063%=      5-min Rain = 0
KME1 091602Z 20013KT 16/09 A2991 RMK A01 T01640094  RH  063%=      5-min Rain = 0
KME1 091603Z 20017KT 17/09 A2991 RMK A01 T01650094  RH  063%=      5-min Rain = 0
KME1 091604Z 20015KT 17/09 A2991 RMK A01 T01660094  RH  062%=      5-min Rain = 0
KME1 091605Z 20017G22KT 17/10 A2991 RMK A01 T01660095  RH  063%=      5-min Rain = 0
KME1 091606Z 20017KT 17/09 A2991 RMK A01 T01650094  RH  063%=      5-min Rain = 0
KME1 091607Z 19015G21KT 16/09 A2991 RMK A01 T01640094  RH  063%=      5-min Rain = 0
KME1 091608Z 19016G22KT 17/09 A2991 RMK A01 T01650094  RH  063%=      5-min Rain = 0
KME1 091609Z 20015KT 17/09 A2991 RMK A01 T01660094  RH  062%=      5-min Rain = 0
KME1 091610Z 20016KT 17/09 A2991 RMK A01 T01670093  RH  062%=      5-min Rain = 0
KME1 091611Z 20016KT 17/09 A2991 RMK A01 T01670094  RH  062%=      5-min Rain = 0
KME1 091612Z 20013KT 17/09 A2991 RMK A01 T01680094  RH  062%=      5-min Rain = 0
KME1 091613Z 20015KT 17/10 A2991 RMK A01 T01680095  RH  062%=      5-min Rain = 0
KME1 091614Z 20016G21KT 17/09 A2991 RMK A01 T01680094  RH  062%=      5-min Rain = 0
KME1 091615Z 21015KT 17/09 A2991 RMK A01 T01690094  RH  061%=      5-min Rain = 0
KME1 091616Z 20015KT 17/10 A2991 RMK A01 T01690095  RH  062%=      5-min Rain = 0
KME1 091617Z 20010KT 17/10 A2991 RMK A01 T01690095  RH  062%=      5-min Rain = 0
KME1 091618Z 20014KT 17/10 A2991 RMK A01 T01710095  RH  061%=      5-min Rain = 0
KME1 091619Z 21016KT 17/09 A2991 RMK A01 T01730094  RH  060%=      5-min Rain = 0
KME1 091620Z 21012KT 17/09 A2991 RMK A01 T01720094  RH  060%=      5-min Rain = 0
KME1 091621Z 20009KT 17/10 A2991 RMK A01 T01720095  RH  060%=      5-min Rain = 0
KME1 091622Z 20014KT 18/10 A2991 RMK A01 T01750095  RH  059%=      5-min Rain = 0
KME1 091623Z 19014KT 18/09 A2991 RMK A01 T01750094  RH  059%=      5-min Rain = 0
KME1 091624Z 19016G21KT 18/09 A2991 RMK A01 T01750093  RH  059%=      5-min Rain = 0
KME1 091625Z 19013KT 17/09 A2991 RMK A01 T01740093  RH  059%=      5-min Rain = 0
KME1 091626Z 20011KT 17/09 A2991 RMK A01 T01740094  RH  059%=      5-min Rain = 0
KME1 091627Z 19012G17KT 18/09 A2991 RMK A01 T01750094  RH  059%=      5-min Rain = 0
KME1 091628Z 19015KT 18/09 A2991 RMK A01 T01770094  RH  058%=      5-min Rain = 0
KME1 091629Z 19012KT 18/09 A2991 RMK A01 T01770093  RH  058%=      5-min Rain = 0
KME1 091630Z 19013KT 18/09 A2991 RMK A01 T01760094  RH  059%=      5-min Rain = 0
KME1 091631Z 20014KT 18/09 A2991 RMK A01 T01770094  RH  058%=      5-min Rain = 0
KME1 091632Z 20014KT 18/09 A2991 RMK A01 T01770094  RH  058%=      5-min Rain = 0
KME1 091633Z 20016KT 18/09 A2991 RMK A01 T01760094  RH  058%=      5-min Rain = 0
KME1 091634Z 20015KT 18/09 A2991 RMK A01 T01750094  RH  059%=      5-min Rain = 0
KME1 091635Z 19014G19KT 18/09 A2991 RMK A01 T01750094  RH  059%=      5-min Rain = 0
KME1 091636Z 19013KT 18/09 A2991 RMK A01 T01760094  RH  059%=      5-min Rain = 0
KME1 091637Z 18013KT 18/09 A2991 RMK A01 T01760094  RH  059%=      5-min Rain = 0
KME1 091638Z 18015KT 18/09 A2991 RMK A01 T01760093  RH  058%=      5-min Rain = 0
KME1 091639Z 19013KT 18/09 A2991 RMK A01 T01760093  RH  058%=      5-min Rain = 0
KME1 091640Z 19013KT 18/09 A2991 RMK A01 T01770094  RH  058%=      5-min Rain = 0
KME1 091641Z 19014KT 18/09 A2991 RMK A01 T01770094  RH  058%=      5-min Rain = 0
KME1 091642Z 19016KT 18/09 A2991 RMK A01 T01770094  RH  058%=      5-min Rain = 0
KME1 091643Z 19013KT 18/09 A2991 RMK A01 T01760093  RH  058%=      5-min Rain = 0
KME1 091644Z 19012KT 18/09 A2991 RMK A01 T01760094  RH  058%=      5-min Rain = 0
KME1 091645Z 18014G19KT 18/09 A2991 RMK A01 T01780094  RH  058%=      5-min Rain = 0
KME1 091646Z 18014KT 18/09 A2991 RMK A01 T01780094  RH  058%=      5-min Rain = 0
KME1 091647Z 19010G15KT 18/09 A2991 RMK A01 T01780094  RH  058%=      5-min Rain = 0
KME1 091648Z 20016KT 18/09 A299 RMK A01 T01800094  RH  057%=      5-min Rain = 0
KME1 091649Z 20015G20KT 18/09 A299 RMK A01 T01810093  RH  056%=      5-min Rain = 0
KME1 091650Z 19013KT 18/09 A2991 RMK A01 T01810092  RH  056%=      5-min Rain = 0
KME1 091651Z 19014KT 18/09 A299 RMK A01 T01820093  RH  056%=      5-min Rain = 0
KME1 091652Z 19015G20KT 18/09 A299 RMK A01 T01820092  RH  056%=      5-min Rain = 0
KME1 091653Z 20015KT 18/09 A2991 RMK A01 T01820092  RH  056%=      5-min Rain = 0
KME1 091654Z 20016KT 18/09 A2991 RMK A01 T01820091  RH  055%=      5-min Rain = 0
KME1 091655Z 20016KT 18/09 A2991 RMK A01 T01820091  RH  055%=      5-min Rain = 0
KME1 091656Z 19014KT 18/09 A2991 RMK A01 T01820090  RH  055%=      5-min Rain = 0
KME1 091657Z 20016KT 18/09 A2991 RMK A01 T01830091  RH  055%=      5-min Rain = 0
KME1 091658Z 20015KT 19/09 A2991 RMK A01 T01850092  RH  054%=      5-min Rain = 0
KME1 091659Z 19015KT 19/09 A2991 RMK A01 T01880092  RH  054%=      5-min Rain = 0
KME1 091700Z 20014KT 19/09 A2991 RMK A01 T01890091  RH  053%=      5-min Rain = 0
KME1 091701Z 21015KT 19/09 A2991 RMK A01 T01900091  RH  053%=      5-min Rain = 0
KME1 091702Z 20017KT 19/09 A2991 RMK A01 T01910090  RH  052%=      5-min Rain = 0
KME1 091703Z 20013G19KT 19/09 A2991 RMK A01 T01910088  RH  051%=      5-min Rain = 0
KME1 091704Z 20015KT 19/09 A2991 RMK A01 T01920088  RH  051%=      5-min Rain = 0
KME1 091705Z 19012KT 19/09 A2991 RMK A01 T01930089  RH  051%=      5-min Rain = 0
KME1 091706Z 20014KT 20/09 A2991 RMK A01 T01950090  RH  051%=      5-min Rain = 0
KME1 091707Z 21016G21KT 20/09 A299 RMK A01 T01950090  RH  051%=      5-min Rain = 0
KME1 091708Z 20013KT 20/09 A2991 RMK A01 T01950090  RH  051%=      5-min Rain = 0
KME1 091709Z 20012G18KT 20/09 A2991 RMK A01 T01980092  RH  051%=      5-min Rain = 0
KME1 091710Z 20017G22KT 20/09 A2991 RMK A01 T02000091  RH  049%=      5-min Rain = 0
KME1 091711Z 20017KT 20/09 A2991 RMK A01 T01990090  RH  049%=      5-min Rain = 0
KME1 091712Z 21014KT 20/09 A2991 RMK A01 T01980089  RH  049%=      5-min Rain = 0
KME1 091713Z 20014KT 20/09 A2991 RMK A01 T01990090  RH  049%=      5-min Rain = 0
KME1 091714Z 18013KT 20/09 A2991 RMK A01 T02000091  RH  050%=      5-min Rain = 0
KME1 091715Z 19012G18KT 20/09 A299 RMK A01 T02010093  RH  050%=      5-min Rain = 0
KME1 091716Z 18015KT 20/09 A299 RMK A01 T02030091  RH  049%=      5-min Rain = 0
KME1 091717Z 19014KT 21/09 A299 RMK A01 T02050090  RH  047%=      5-min Rain = 0
KME1 091718Z 19014KT 21/09 A299 RMK A01 T02060089  RH  047%=      5-min Rain = 0
KME1 091719Z 19016KT 21/09 A2991 RMK A01 T02070088  RH  046%=      5-min Rain = 0
KME1 091720Z 18015KT 21/09 A2991 RMK A01 T02060088  RH  047%=      5-min Rain = 0
KME1 091721Z 17014KT 20/09 A2991 RMK A01 T02040089  RH  048%=      5-min Rain = 0
KME1 091722Z 18014G19KT 20/09 A2991 RMK A01 T02020089  RH  048%=      5-min Rain = 0
KME1 091723Z 18014KT 20/09 A2991 RMK A01 T02020090  RH  048%=      5-min Rain = 0
KME1 091724Z 18012G17KT 20/09 A2991 RMK A01 T02020089  RH  048%=      5-min Rain = 0
KME1 091725Z 17017KT 20/09 A2991 RMK A01 T02010089  RH  048%=      5-min Rain = 0
KME1 091726Z 18015G20KT 20/09 A2991 RMK A01 T01980090  RH  050%=      5-min Rain = 0
KME1 091727Z 18016KT 20/09 A2991 RMK A01 T01970090  RH  050%=      5-min Rain = 0
KME1 091728Z 18014KT 20/09 A2991 RMK A01 T01960089  RH  050%=      5-min Rain = 0
KME1 091729Z 19012G17KT 20/09 A299 RMK A01 T01960089  RH  050%=      5-min Rain = 0
KME1 091730Z 19015KT 20/09 A2991 RMK A01 T01980088  RH  049%=      5-min Rain = 0
KME1 091731Z 18011KT 20/09 A2991 RMK A01 T02000088  RH  049%=      5-min Rain = 0
KME1 091732Z 18014G19KT 20/09 A299 RMK A01 T02010089  RH  048%=      5-min Rain = 0
KME1 091733Z 18016KT 20/09 A299 RMK A01 T02030088  RH  048%=      5-min Rain = 0
KME1 091734Z 19014KT 20/09 A2991 RMK A01 T02030089  RH  048%=      5-min Rain = 0
KME1 091735Z 19011KT 20/09 A299 RMK A01 T02020090  RH  048%=      5-min Rain = 0
KME1 091736Z 18013G19KT 20/09 A299 RMK A01 T02030092  RH  049%=      5-min Rain = 0
KME1 091737Z 18016KT 21/09 A299 RMK A01 T02050091  RH  048%=      5-min Rain = 0
KME1 091738Z 18014KT 21/09 A299 RMK A01 T02050090  RH  047%=      5-min Rain = 0
KME1 091739Z 19015KT 21/09 A299 RMK A01 T02060090  RH  047%=      5-min Rain = 0
KME1 091740Z 18012G18KT 21/09 A299 RMK A01 T02060092  RH  048%=      5-min Rain = 0
KME1 091741Z 18015KT 21/09 A299 RMK A01 T02070091  RH  048%=      5-min Rain = 0
KME1 091742Z 18014G19KT 21/09 A299 RMK A01 T02060091  RH  047%=      5-min Rain = 0
KME1 091743Z 18015KT 21/09 A299 RMK A01 T02050092  RH  048%=      5-min Rain = 0
KME1 091744Z 19011KT 20/09 A299 RMK A01 T02040092  RH  049%=      5-min Rain = 0
KME1 091745Z 18014KT 20/09 A299 RMK A01 T02040092  RH  048%=      5-min Rain = 0
KME1 091746Z 18011KT 21/09 A299 RMK A01 T02060092  RH  048%=      5-min Rain = 0
KME1 091747Z 19012KT 21/09 A299 RMK A01 T02090093  RH  047%=      5-min Rain = 0
KME1 091748Z 19013G18KT 21/09 A299 RMK A01 T02120092  RH  046%=      5-min Rain = 0
KME1 091749Z 21017KT 21/09 A299 RMK A01 T02120091  RH  046%=      5-min Rain = 0
KME1 091750Z 21014KT 21/09 A299 RMK A01 T02100091  RH  046%=      5-min Rain = 0
KME1 091751Z 19014KT 21/09 A299 RMK A01 T02110092  RH  047%=      5-min Rain = 0
KME1 091752Z 18017KT 21/09 A299 RMK A01 T02120091  RH  046%=      5-min Rain = 0
KME1 091753Z 19015KT 21/09 A299 RMK A01 T02110091  RH  046%=      5-min Rain = 0
KME1 091754Z 18014G19KT 21/09 A299 RMK A01 T02100092  RH  047%=      5-min Rain = 0
KME1 091755Z 21016KT 21/09 A299 RMK A01 T02110092  RH  046%=      5-min Rain = 0
KME1 091756Z 19013KT 21/09 A299 RMK A01 T02110093  RH  047%=      5-min Rain = 0
KME1 091757Z 18011KT 21/10 A299 RMK A01 T02120095  RH  047%=      5-min Rain = 0
KME1 091758Z 18009KT 21/10 A2989 RMK A01 T02140095  RH  047%=      5-min Rain = 0
KME1 091759Z 19014KT 22/10 A2989 RMK A01 T02170095  RH  046%=      5-min Rain = 0
KME1 091800Z 17015KT 22/09 A2989 RMK A01 T02180094  RH  045%=      5-min Rain = 0
KME1 091801Z 17015KT 22/09 A2989 RMK A01 T02180093  RH  045%=      5-min Rain = 0
KME1 091802Z 19014KT 22/09 A2989 RMK A01 T02180092  RH  044%=      5-min Rain = 0
KME1 091803Z 19014KT 22/09 A2989 RMK A01 T02200092  RH  044%=      5-min Rain = 0
KME1 091804Z 19016KT 22/09 A2989 RMK A01 T02210090  RH  043%=      5-min Rain = 0
KME1 091805Z 19013KT 22/09 A2988 RMK A01 T02220089  RH  043%=      5-min Rain = 0
KME1 091806Z 19011KT 22/09 A2988 RMK A01 T02220088  RH  042%=      5-min Rain = 0
KME1 091807Z 18013KT 22/09 A2988 RMK A01 T02240089  RH  042%=      5-min Rain = 0
KME1 091808Z 20012KT 23/09 A2988 RMK A01 T02270089  RH  041%=      5-min Rain = 0
KME1 091809Z 20014KT 23/09 A2988 RMK A01 T02280089  RH  041%=      5-min Rain = 0
KME1 091810Z 20014KT 23/09 A2988 RMK A01 T02290089  RH  041%=      5-min Rain = 0
KME1 091811Z 21013KT 23/09 A2988 RMK A01 T02290090  RH  041%=      5-min Rain = 0
KME1 091812Z 20009KT 23/09 A2988 RMK A01 T02310091  RH  041%=      5-min Rain = 0
KME1 091813Z 20012G18KT 23/09 A2988 RMK A01 T02340092  RH  040%=      5-min Rain = 0
KME1 091814Z 20015KT 24/09 A2988 RMK A01 T02380091  RH  039%=      5-min Rain = 0
KME1 091815Z 18014G19KT 24/09 A2988 RMK A01 T02350090  RH  039%=      5-min Rain = 0
KME1 091816Z 18016G21KT 23/09 A2988 RMK A01 T02330087  RH  039%=      5-min Rain = 0
KME1 091817Z 19015G20KT 23/09 A2987 RMK A01 T02310087  RH  040%=      5-min Rain = 0
KME1 091818Z 18013KT 23/09 A2987 RMK A01 T02300087  RH  040%=      5-min Rain = 0
KME1 091819Z 19012KT 23/09 A2987 RMK A01 T02320088  RH  040%=      5-min Rain = 0
KME1 091820Z 18011KT 23/09 A2987 RMK A01 T02330088  RH  040%=      5-min Rain = 0
KME1 091821Z 19013KT 23/09 A2987 RMK A01 T02340087  RH  039%=      5-min Rain = 0
KME1 091822Z 19013G18KT 24/09 A2987 RMK A01 T02350087  RH  039%=      5-min Rain = 0
KME1 091823Z 20015G20KT 24/09 A2987 RMK A01 T02350087  RH  039%=      5-min Rain = 0
KME1 091824Z 20013G18KT 24/09 A2987 RMK A01 T02360085  RH  038%=      5-min Rain = 0
KME1 091825Z 20012G17KT 24/09 A2987 RMK A01 T02370085  RH  038%=      5-min Rain = 0
KME1 091826Z 19014G19KT 24/09 A2987 RMK A01 T02360086  RH  038%=      5-min Rain = 0
KME1 091827Z 19011KT 24/09 A2987 RMK A01 T02350085  RH  038%=      5-min Rain = 0
KME1 091828Z 19014KT 24/09 A2987 RMK A01 T02380086  RH  038%=      5-min Rain = 0
KME1 091829Z 19013KT 24/08 A2987 RMK A01 T02390084  RH  037%=      5-min Rain = 0
KME1 091830Z 19011KT 24/09 A2987 RMK A01 T02380087  RH  038%=      5-min Rain = 0
KME1 091831Z 18012KT 24/09 A2986 RMK A01 T02410088  RH  038%=      5-min Rain = 0
KME1 091832Z 18013KT 24/09 A2986 RMK A01 T02410086  RH  037%=      5-min Rain = 0
KME1 091833Z 20014G20KT 24/09 A2986 RMK A01 T02400087  RH  038%=      5-min Rain = 0
KME1 091834Z 21014KT 24/09 A2986 RMK A01 T02420085  RH  037%=      5-min Rain = 0
KME1 091835Z 20013G18KT 24/09 A2986 RMK A01 T02410086  RH  037%=      5-min Rain = 0
KME1 091836Z 19015KT 24/09 A2986 RMK A01 T02390086  RH  037%=      5-min Rain = 0
KME1 091837Z 20015KT 24/09 A2986 RMK A01 T02390085  RH  038%=      5-min Rain = 0
KME1 091838Z 19016G21KT 24/09 A2986 RMK A01 T02380085  RH  037%=      5-min Rain = 0
KME1 091839Z 19015KT 24/08 A2986 RMK A01 T02370084  RH  037%=      5-min Rain = 0
KME1 091840Z 19014KT 24/08 A2985 RMK A01 T02370083  RH  037%=      5-min Rain = 0
KME1 091841Z 20014KT 24/08 A2985 RMK A01 T02370084  RH  038%=      5-min Rain = 0
KME1 091842Z 18013G18KT 24/09 A2985 RMK A01 T02380085  RH  037%=      5-min Rain = 0
KME1 091843Z 17013KT 24/09 A2985 RMK A01 T02380085  RH  038%=      5-min Rain = 0
KME1 091844Z 18010KT 24/09 A2985 RMK A01 T02370085  RH  038%=      5-min Rain = 0
KME1 091845Z 18015KT 24/09 A2985 RMK A01 T02410086  RH  037%=      5-min Rain = 0
KME1 091846Z 19015KT 24/08 A2985 RMK A01 T02430084  RH  036%=      5-min Rain = 0
KME1 091847Z 19014KT 24/09 A2985 RMK A01 T02420086  RH  037%=      5-min Rain = 0
KME1 091848Z 19016KT 25/09 A2985 RMK A01 T02460087  RH  036%=      5-min Rain = 0
KME1 091849Z 20015KT 25/08 A2985 RMK A01 T02450083  RH  035%=      5-min Rain = 0
KME1 091850Z 19011KT 24/08 A2985 RMK A01 T02410083  RH  036%=      5-min Rain = 0
KME1 091851Z 18015G21KT 24/08 A2985 RMK A01 T02420083  RH  036%=      5-min Rain = 0
KME1 091852Z 18015KT 24/08 A2984 RMK A01 T02430083  RH  036%=      5-min Rain = 0
KME1 091853Z 21013G18KT 24/08 A2985 RMK A01 T02410080  RH  036%=      5-min Rain = 0
KME1 091854Z 21015KT 24/08 A2984 RMK A01 T02400078  RH  036%=      5-min Rain = 0
KME1 091855Z 21016KT 24/08 A2984 RMK A01 T02400081  RH  036%=      5-min Rain = 0
KME1 091856Z 19016KT 24/08 A2984 RMK A01 T02410082  RH  036%=      5-min Rain = 0
KME1 091857Z 19014G19KT 24/08 A2984 RMK A01 T02400083  RH  036%=      5-min Rain = 0
KME1 091858Z 19016KT 24/08 A2984 RMK A01 T02400083  RH  037%=      5-min Rain = 0
KME1 091859Z 19015G20KT 24/08 A2984 RMK A01 T02390082  RH  037%=      5-min Rain = 0
KME1 091900Z 19016KT 24/08 A2984 RMK A01 T02390079  RH  036%=      5-min Rain = 0
KME1 091901Z 19013G19KT 24/08 A2984 RMK A01 T02400079  RH  035%=      5-min Rain = 0
KME1 091902Z 21014KT 24/08 A2984 RMK A01 T02440079  RH  035%=      5-min Rain = 0
KME1 091903Z 20014KT 24/08 A2984 RMK A01 T02440078  RH  034%=      5-min Rain = 0
KME1 091904Z 19013KT 25/08 A2984 RMK A01 T02450077  RH  034%=      5-min Rain = 0
KME1 091905Z 20010KT 25/08 A2984 RMK A01 T02450078  RH  034%=      5-min Rain = 0
KME1 091906Z 19016G21KT 25/08 A2984 RMK A01 T02470080  RH  034%=      5-min Rain = 0
KME1 091907Z 21014KT 25/08 A2984 RMK A01 T02480079  RH  034%=      5-min Rain = 0
KME1 091908Z 22013KT 25/08 A2984 RMK A01 T02480077  RH  034%=      5-min Rain = 0
KME1 091909Z 20013G18KT 25/08 A2983 RMK A01 T02480078  RH  034%=      5-min Rain = 0
KME1 091910Z 19013KT 25/08 A2983 RMK A01 T02500078  RH  033%=      5-min Rain = 0
KME1 091911Z 20014KT 25/08 A2984 RMK A01 T02500079  RH  034%=      5-min Rain = 0
KME1 091912Z 21012KT 25/08 A2983 RMK A01 T02490077  RH  033%=      5-min Rain = 0
KME1 091913Z 19012KT 25/08 A2983 RMK A01 T02460077  RH  034%=      5-min Rain = 0
KME1 091914Z 19012G17KT 25/08 A2983 RMK A01 T02480078  RH  034%=      5-min Rain = 0
KME1 091915Z 18014KT 25/08 A2983 RMK A01 T02490075  RH  033%=      5-min Rain = 0
KME1 091916Z 19013G18KT 25/08 A2983 RMK A01 T02490075  RH  033%=      5-min Rain = 0
KME1 091917Z 19014KT 25/08 A2983 RMK A01 T02490077  RH  033%=      5-min Rain = 0
KME1 091918Z 19012KT 25/08 A2983 RMK A01 T02500079  RH  034%=      5-min Rain = 0
KME1 091919Z 20013KT 25/08 A2983 RMK A01 T02500079  RH  034%=      5-min Rain = 0
KME1 091920Z 19009KT 25/08 A2983 RMK A01 T02500080  RH  034%=      5-min Rain = 0
KME1 091921Z 18014G20KT 25/08 A2983 RMK A01 T02530080  RH  033%=      5-min Rain = 0
KME1 091922Z 19013KT 26/08 A2983 RMK A01 T02560077  RH  032%=      5-min Rain = 0
KME1 091923Z 21013G18KT 26/08 A2983 RMK A01 T02560078  RH  032%=      5-min Rain = 0
KME1 091924Z 22013KT 26/08 A2983 RMK A01 T02560077  RH  032%=      5-min Rain = 0
KME1 091925Z 21012KT 25/08 A2982 RMK A01 T02540078  RH  033%=      5-min Rain = 0
KME1 091926Z 20010KT 25/08 A2982 RMK A01 T02530079  RH  033%=      5-min Rain = 0
KME1 091927Z 18012G17KT 26/08 A2982 RMK A01 T02560080  RH  033%=      5-min Rain = 0
KME1 091928Z 20011G17KT 26/08 A2982 RMK A01 T02590080  RH  032%=      5-min Rain = 0
KME1 091929Z 20014G20KT 26/08 A2982 RMK A01 T02630079  RH  031%=      5-min Rain = 0
KME1 091930Z 18012KT 26/08 A2982 RMK A01 T02630078  RH  031%=      5-min Rain = 0
KME1 091931Z 19016KT 26/07 A2982 RMK A01 T02610074  RH  030%=      5-min Rain = 0
KME1 091932Z 22011KT 26/07 A2982 RMK A01 T02590074  RH  031%=      5-min Rain = 0
KME1 091933Z 20012KT 26/07 A2982 RMK A01 T02590074  RH  031%=      5-min Rain = 0
KME1 091934Z 21010KT 26/07 A2982 RMK A01 T02600073  RH  030%=      5-min Rain = 0
KME1 091935Z 20013KT 26/07 A2982 RMK A01 T02610073  RH  030%=      5-min Rain = 0
KME1 091936Z 21014KT 26/07 A2982 RMK A01 T02620073  RH  030%=      5-min Rain = 0
KME1 091937Z 20014KT 26/07 A2982 RMK A01 T02610072  RH  030%=      5-min Rain = 0
KME1 091938Z 19013KT 26/07 A2982 RMK A01 T02610071  RH  030%=      5-min Rain = 0
KME1 091939Z 20011KT 26/07 A2982 RMK A01 T02610071  RH  030%=      5-min Rain = 0
KME1 091940Z 20013G18KT 26/07 A2982 RMK A01 T02640072  RH  029%=      5-min Rain = 0
KME1 091941Z 20012KT 26/07 A2982 RMK A01 T02620069  RH  029%=      5-min Rain = 0
KME1 091942Z 19015KT 26/07 A2982 RMK A01 T02600070  RH  030%=      5-min Rain = 0
KME1 091943Z 18013KT 26/07 A2982 RMK A01 T02590068  RH  030%=      5-min Rain = 0
KME1 091944Z 18011KT 26/07 A2982 RMK A01 T02590068  RH  030%=      5-min Rain = 0
KME1 091945Z 19010KT 26/07 A2982 RMK A01 T02600069  RH  030%=      5-min Rain = 0
KME1 091946Z 22013G19KT 26/07 A2982 RMK A01 T02610069  RH  030%=      5-min Rain = 0
KME1 091947Z 21013KT 26/06 A2982 RMK A01 T02620064  RH  028%=      5-min Rain = 0
KME1 091948Z 20013G18KT 26/06 A2982 RMK A01 T02630062  RH  028%=      5-min Rain = 0
KME1 091949Z 21014G19KT 26/06 A2982 RMK A01 T02640064  RH  028%=      5-min Rain = 0
KME1 091950Z 22015KT 26/07 A2982 RMK A01 T02640066  RH  028%=      5-min Rain = 0
KME1 091951Z 21014KT 26/07 A2982 RMK A01 T02640067  RH  028%=      5-min Rain = 0
KME1 091952Z 20010G15KT 26/07 A2982 RMK A01 T02630066  RH  029%=      5-min Rain = 0
KME1 091953Z 20012KT 26/07 A2982 RMK A01 T02620066  RH  029%=      5-min Rain = 0
KME1 091954Z 20011KT 26/07 A2982 RMK A01 T02620065  RH  028%=      5-min Rain = 0
KME1 091955Z 21011G20KT 26/07 A2982 RMK A01 T02630065  RH  028%=      5-min Rain = 0
KME1 091956Z 20015G21KT 27/07 A2981 RMK A01 T02650067  RH  028%=      5-min Rain = 0
KME1 091957Z 20012KT 26/07 A2981 RMK A01 T02640067  RH  029%=      5-min Rain = 0
KME1 091958Z 21013G18KT 26/07 A2981 RMK A01 T02630068  RH  029%=      5-min Rain = 0
KME1 091959Z 21012G17KT 27/06 A2981 RMK A01 T02650063  RH  028%=      5-min Rain = 0
KME1 092000Z 19012KT 26/07 A2981 RMK A01 T02630065  RH  028%=      5-min Rain = 0
KME1 092001Z 18011KT 26/07 A2981 RMK A01 T02600066  RH  029%=      5-min Rain = 0
KME1 092002Z 19012KT 26/07 A2981 RMK A01 T02570066  RH  029%=      5-min Rain = 0
KME1 092003Z 19013KT 26/06 A2981 RMK A01 T02570064  RH  029%=      5-min Rain = 0
KME1 092004Z 19013KT 26/06 A2981 RMK A01 T02560064  RH  029%=      5-min Rain = 0
KME1 092005Z 18015KT 25/07 A2981 RMK A01 T02540065  RH  030%=      5-min Rain = 0
KME1 092006Z 19014KT 25/07 A2981 RMK A01 T02540065  RH  030%=      5-min Rain = 0
KME1 092007Z 19012KT 25/06 A2981 RMK A01 T02530063  RH  030%=      5-min Rain = 0
KME1 092008Z 18009KT 25/06 A2981 RMK A01 T02520063  RH  030%=      5-min Rain = 0
KME1 092009Z 19009KT 25/06 A2981 RMK A01 T02530064  RH  030%=      5-min Rain = 0
KME1 092010Z 19007KT 26/07 A2981 RMK A01 T02570066  RH  030%=      5-min Rain = 0
KME1 092011Z 18010KT 26/07 A2981 RMK A01 T02640069  RH  029%=      5-min Rain = 0
KME1 092012Z 20013KT 27/06 A2981 RMK A01 T02700064  RH  027%=      5-min Rain = 0
KME1 092013Z 21010G16KT 27/06 A2981 RMK A01 T02700058  RH  026%=      5-min Rain = 0
KME1 092014Z 21011KT 27/06 A2981 RMK A01 T02720056  RH  025%=      5-min Rain = 0
KME1 092015Z 21010KT 27/06 A2981 RMK A01 T02740056  RH  025%=      5-min Rain = 0
KME1 092016Z 20009KT 27/06 A2981 RMK A01 T02730057  RH  025%=      5-min Rain = 0
KME1 092017Z 21010KT 28/06 A2981 RMK A01 T02750063  RH  026%=      5-min Rain = 0
KME1 092018Z 19014KT 28/07 A2981 RMK A01 T02760065  RH  026%=      5-min Rain = 0
KME1 092019Z 19014KT 28/06 A2981 RMK A01 T02750062  RH  026%=      5-min Rain = 0
KME1 092020Z 21015KT 27/06 A298 RMK A01 T02730063  RH  026%=      5-min Rain = 0
KME1 092021Z 22015KT 27/06 A2981 RMK A01 T02720064  RH  027%=      5-min Rain = 0
KME1 092022Z 23012KT 27/06 A2981 RMK A01 T02710064  RH  027%=      5-min Rain = 0
KME1 092023Z 21011KT 27/06 A298 RMK A01 T02680064  RH  027%=      5-min Rain = 0
KME1 092024Z 19012KT 27/06 A298 RMK A01 T02710063  RH  027%=      5-min Rain = 0
KME1 092025Z 18009KT 27/06 A298 RMK A01 T02730061  RH  026%=      5-min Rain = 0
KME1 092026Z 20011KT 27/06 A298 RMK A01 T02700061  RH  026%=      5-min Rain = 0
KME1 092027Z 21011KT 27/06 A298 RMK A01 T02720063  RH  027%=      5-min Rain = 0
KME1 092028Z 19012KT 28/06 A298 RMK A01 T02750063  RH  026%=      5-min Rain = 0
KME1 092029Z 19009KT 27/06 A298 RMK A01 T02740064  RH  026%=      5-min Rain = 0
KME1 092030Z 19007KT 27/06 A298 RMK A01 T02740064  RH  026%=      5-min Rain = 0
KME1 092031Z 19009KT 27/06 A298 RMK A01 T02740064  RH  026%=      5-min Rain = 0
KME1 092032Z 21012KT 27/06 A298 RMK A01 T02730063  RH  026%=      5-min Rain = 0
KME1 092033Z 23012KT 27/06 A298 RMK A01 T02730060  RH  026%=      5-min Rain = 0
KME1 092034Z 22011KT 27/06 A298 RMK A01 T02730058  RH  025%=      5-min Rain = 0
KME1 092035Z 20010KT 27/06 A298 RMK A01 T02740059  RH  025%=      5-min Rain = 0
KME1 092036Z 21012G18KT 27/06 A298 RMK A01 T02740061  RH  026%=      5-min Rain = 0
KME1 092037Z 19013G20KT 28/06 A298 RMK A01 T02750062  RH  026%=      5-min Rain = 0
KME1 092038Z 19012G18KT 27/06 A298 RMK A01 T02730062  RH  026%=      5-min Rain = 0
KME1 092039Z 20014G19KT 27/06 A2979 RMK A01 T02720060  RH  026%=      5-min Rain = 0
KME1 092040Z 20015KT 28/06 A298 RMK A01 T02750057  RH  025%=      5-min Rain = 0
KME1 092041Z 19014G19KT 28/05 A298 RMK A01 T02750051  RH  024%=      5-min Rain = 0
KME1 092042Z 20015KT 27/05 A298 RMK A01 T02740050  RH  024%=      5-min Rain = 0
KME1 092043Z 20010KT 27/05 A298 RMK A01 T02720052  RH  025%=      5-min Rain = 0
KME1 092044Z 19011KT 27/05 A298 RMK A01 T02740054  RH  025%=      5-min Rain = 0
KME1 092045Z 21011KT 28/06 A298 RMK A01 T02770057  RH  025%=      5-min Rain = 0
KME1 092046Z 23013KT 28/06 A298 RMK A01 T02790057  RH  024%=      5-min Rain = 0
KME1 092047Z 21012KT 28/06 A2979 RMK A01 T02780058  RH  025%=      5-min Rain = 0
KME1 092048Z 21012KT 28/06 A2979 RMK A01 T02780058  RH  025%=      5-min Rain = 0
KME1 092049Z 18014KT 28/06 A2979 RMK A01 T02780058  RH  025%=      5-min Rain = 0
KME1 092050Z 19014KT 28/06 A2979 RMK A01 T02770058  RH  025%=      5-min Rain = 0
KME1 092051Z 20013KT 27/06 A2979 RMK A01 T02740058  RH  025%=      5-min Rain = 0
KME1 092052Z 20014KT 28/06 A2979 RMK A01 T02750057  RH  025%=      5-min Rain = 0
KME1 092053Z 21013KT 28/05 A2979 RMK A01 T02760054  RH  024%=      5-min Rain = 0
KME1 092054Z 20015G20KT 28/05 A2979 RMK A01 T02750054  RH  025%=      5-min Rain = 0
KME1 092055Z 20013G20KT 28/06 A2979 RMK A01 T02760056  RH  025%=      5-min Rain = 0
KME1 092056Z 20013KT 28/06 A2979 RMK A01 T02750056  RH  025%=      5-min Rain = 0
KME1 092057Z 18013KT 27/06 A2979 RMK A01 T02740056  RH  025%=      5-min Rain = 0
KME1 092058Z 20011KT 27/06 A2979 RMK A01 T02740057  RH  025%=      5-min Rain = 0
KME1 092059Z 22014KT 28/05 A2979 RMK A01 T02770054  RH  024%=      5-min Rain = 0
KME1 092100Z 20015KT 28/05 A2979 RMK A01 T02770052  RH  024%=      5-min Rain = 0
KME1 092101Z 20014KT 28/05 A2979 RMK A01 T02760054  RH  024%=      5-min Rain = 0
KME1 092102Z 21012KT 28/06 A2979 RMK A01 T02770055  RH  024%=      5-min Rain = 0
KME1 092103Z 20011G17KT 28/06 A2979 RMK A01 T02770055  RH  024%=      5-min Rain = 0
KME1 092104Z 19013KT 28/05 A2979 RMK A01 T02760053  RH  024%=      5-min Rain = 0
KME1 092105Z 19010G21KT 27/05 A2979 RMK A01 T02740054  RH  025%=      5-min Rain = 0
KME1 092106Z 18016KT 27/06 A2978 RMK A01 T02730056  RH  025%=      5-min Rain = 0
KME1 092107Z 18011KT 27/06 A2978 RMK A01 T02710057  RH  026%=      5-min Rain = 0
KME1 092108Z 21016G21KT 27/06 A2978 RMK A01 T02710057  RH  025%=      5-min Rain = 0
KME1 092109Z 21015KT 27/05 A2979 RMK A01 T02710049  RH  024%=      5-min Rain = 0
KME1 092110Z 22013G19KT 27/05 A2979 RMK A01 T02700048  RH  024%=      5-min Rain = 0
KME1 092111Z 21012KT 27/05 A2979 RMK A01 T02680049  RH  025%=      5-min Rain = 0
KME1 092112Z 20013KT 27/05 A2979 RMK A01 T02680049  RH  024%=      5-min Rain = 0
KME1 092113Z 20013G18KT 27/05 A2979 RMK A01 T02690048  RH  024%=      5-min Rain = 0
KME1 092114Z 21013G18KT 27/05 A2979 RMK A01 T02700049  RH  024%=      5-min Rain = 0
KME1 092115Z 21016KT 27/05 A2978 RMK A01 T02700048  RH  024%=      5-min Rain = 0
KME1 092116Z 22013G18KT 27/05 A2978 RMK A01 T02680050  RH  025%=      5-min Rain = 0
KME1 092117Z 19012G17KT 27/05 A2979 RMK A01 T02690052  RH  025%=      5-min Rain = 0
KME1 092118Z 19015KT 27/05 A2978 RMK A01 T02720052  RH  025%=      5-min Rain = 0
KME1 092119Z 19013KT 27/05 A2978 RMK A01 T02700052  RH  025%=      5-min Rain = 0
KME1 092120Z 20011KT 27/05 A2979 RMK A01 T02690054  RH  025%=      5-min Rain = 0
KME1 092121Z 20014KT 27/05 A2979 RMK A01 T02710050  RH  024%=      5-min Rain = 0
KME1 092122Z 21011KT 27/05 A2979 RMK A01 T02720045  RH  023%=      5-min Rain = 0
KME1 092123Z 22014KT 27/04 A2978 RMK A01 T02700044  RH  023%=      5-min Rain = 0
KME1 092124Z 21015KT 27/05 A2978 RMK A01 T02680046  RH  024%=      5-min Rain = 0
KME1 092125Z 21014KT 27/05 A2978 RMK A01 T02660048  RH  025%=      5-min Rain = 0
KME1 092126Z 21015KT 26/05 A2978 RMK A01 T02630050  RH  025%=      5-min Rain = 0
KME1 092127Z 22012KT 26/05 A2979 RMK A01 T02600050  RH  026%=      5-min Rain = 0
KME1 092128Z 23012KT 26/05 A2978 RMK A01 T02600053  RH  026%=      5-min Rain = 0
KME1 092129Z 22009KT 26/05 A2978 RMK A01 T02600054  RH  027%=      5-min Rain = 0
KME1 092130Z 21009G14KT 26/06 A2978 RMK A01 T02610055  RH  027%=      5-min Rain = 0
KME1 092131Z 20015KT 26/06 A2978 RMK A01 T02630056  RH  027%=      5-min Rain = 0
KME1 092132Z 20012KT 26/05 A2978 RMK A01 T02620054  RH  026%=      5-min Rain = 0
KME1 092133Z 21011KT 26/06 A2978 RMK A01 T02610055  RH  027%=      5-min Rain = 0
KME1 092134Z 21013KT 26/06 A2978 RMK A01 T02610055  RH  027%=      5-min Rain = 0
KME1 092135Z 20009KT 26/06 A2978 RMK A01 T02600055  RH  027%=      5-min Rain = 0
KME1 092136Z 20011KT 26/06 A2978 RMK A01 T02620057  RH  027%=      5-min Rain = 0
KME1 092137Z 20012KT 26/06 A2978 RMK A01 T02640056  RH  026%=      5-min Rain = 0
KME1 092138Z 19008KT 26/06 A2978 RMK A01 T02630056  RH  027%=      5-min Rain = 0
KME1 092139Z 20008KT 27/06 A2978 RMK A01 T02650058  RH  027%=      5-min Rain = 0
KME1 092140Z 19009KT 27/06 A2978 RMK A01 T02700057  RH  026%=      5-min Rain = 0
KME1 092141Z 19006KT 27/06 A2978 RMK A01 T02700057  RH  026%=      5-min Rain = 0
KME1 092142Z 21006KT 27/06 A2978 RMK A01 T02710059  RH  026%=      5-min Rain = 0
KME1 092143Z 20006KT 28/06 A2978 RMK A01 T02760062  RH  026%=      5-min Rain = 0
KME1 092144Z 22007G12KT 28/06 A2978 RMK A01 T02780061  RH  025%=      5-min Rain = 0
KME1 092145Z 22006KT 28/05 A2978 RMK A01 T02770053  RH  024%=      5-min Rain = 0
KME1 092146Z 21003KT 27/05 A2978 RMK A01 T02730052  RH  024%=      5-min Rain = 0
KME1 092147Z 22006KT 27/05 A2978 RMK A01 T02720054  RH  025%=      5-min Rain = 0
KME1 092148Z 22006KT 27/06 A2978 RMK A01 T02730055  RH  025%=      5-min Rain = 0
KME1 092149Z 21005KT 27/06 A2978 RMK A01 T02740056  RH  025%=      5-min Rain = 0
KME1 092150Z 19006KT 28/06 A2978 RMK A01 T02770058  RH  025%=      5-min Rain = 0
KME1 092151Z 18011G18KT 28/06 A2978 RMK A01 T02800059  RH  025%=      5-min Rain = 0
KME1 092152Z 18011G16KT 28/06 A2978 RMK A01 T02810056  RH  024%=      5-min Rain = 0
KME1 092153Z 18013KT 28/05 A2978 RMK A01 T02780054  RH  024%=      5-min Rain = 0
KME1 092154Z 20010KT 28/05 A2978 RMK A01 T02750054  RH  024%=      5-min Rain = 0
KME1 092155Z 21012KT 28/05 A2978 RMK A01 T02780052  RH  024%=      5-min Rain = 0
KME1 092156Z 22011KT 28/05 A2978 RMK A01 T02770050  RH  023%=      5-min Rain = 0
KME1 092157Z 21014KT 28/05 A2978 RMK A01 T02760050  RH  024%=      5-min Rain = 0
KME1 092158Z 21013KT 28/05 A2978 RMK A01 T02750049  RH  023%=      5-min Rain = 0
KME1 092159Z 20013G18KT 28/05 A2978 RMK A01 T02750049  RH  024%=      5-min Rain = 0
KME1 092200Z 21012G17KT 28/05 A2978 RMK A01 T02780048  RH  023%=      5-min Rain = 0
KME1 092201Z 20015KT 28/05 A2978 RMK A01 T02800049  RH  023%=      5-min Rain = 0
KME1 092202Z 21013KT 28/05 A2978 RMK A01 T02800048  RH  023%=      5-min Rain = 0
KME1 092203Z 22016KT 28/05 A2978 RMK A01 T02790046  RH  023%=      5-min Rain = 0
KME1 092204Z 22016KT 28/05 A2978 RMK A01 T02750048  RH  023%=      5-min Rain = 0
KME1 092205Z 21012KT 27/05 A2978 RMK A01 T02710047  RH  024%=      5-min Rain = 0
KME1 092206Z 20011KT 27/05 A2977 RMK A01 T02690047  RH  024%=      5-min Rain = 0
KME1 092207Z 19012KT 27/05 A2977 RMK A01 T02690048  RH  024%=      5-min Rain = 0
KME1 092208Z 19014KT 27/05 A2977 RMK A01 T02700047  RH  024%=      5-min Rain = 0
KME1 092209Z 21011KT 27/05 A2977 RMK A01 T02710047  RH  024%=      5-min Rain = 0
KME1 092210Z 20009KT 27/05 A2977 RMK A01 T02740049  RH  024%=      5-min Rain = 0
KME1 092211Z 21014G22KT 28/05 A2977 RMK A01 T02780051  RH  023%=      5-min Rain = 0
KME1 092212Z 22016G21KT 28/05 A2977 RMK A01 T02800047  RH  023%=      5-min Rain = 0
KME1 092213Z 22013KT 28/05 A2977 RMK A01 T02770045  RH  023%=      5-min Rain = 0
KME1 092214Z 22013G18KT 28/05 A2977 RMK A01 T02770045  RH  023%=      5-min Rain = 0
KME1 092215Z 22014KT 28/04 A2977 RMK A01 T02760044  RH  023%=      5-min Rain = 0
KME1 092216Z 21012KT 28/04 A2977 RMK A01 T02760042  RH  022%=      5-min Rain = 0
KME1 092217Z 22015KT 28/04 A2977 RMK A01 T02770041  RH  022%=      5-min Rain = 0
KME1 092218Z 22015KT 27/04 A2977 RMK A01 T02740040  RH  022%=      5-min Rain = 0
KME1 092219Z 22015KT 27/04 A2977 RMK A01 T02700038  RH  022%=      5-min Rain = 0
KME1 092220Z 23013KT 27/04 A2977 RMK A01 T02670038  RH  023%=      5-min Rain = 0
KME1 092221Z 22010KT 27/04 A2977 RMK A01 T02660039  RH  023%=      5-min Rain = 0
KME1 092222Z 22010KT 27/04 A2977 RMK A01 T02650040  RH  023%=      5-min Rain = 0
KME1 092223Z 22014KT 27/04 A2977 RMK A01 T02670042  RH  024%=      5-min Rain = 0
KME1 092224Z 21013KT 27/05 A2977 RMK A01 T02680047  RH  024%=      5-min Rain = 0
KME1 092225Z 19010KT 27/05 A2977 RMK A01 T02680050  RH  025%=      5-min Rain = 0
KME1 092226Z 21009KT 27/05 A2977 RMK A01 T02670050  RH  025%=      5-min Rain = 0
KME1 092227Z 20013G19KT 27/05 A2977 RMK A01 T02670051  RH  025%=      5-min Rain = 0
KME1 092228Z 21013KT 27/05 A2977 RMK A01 T02660051  RH  025%=      5-min Rain = 0
KME1 092229Z 22014KT 27/05 A2977 RMK A01 T02650049  RH  025%=      5-min Rain = 0
KME1 092230Z 22012KT 26/05 A2977 RMK A01 T02640047  RH  025%=      5-min Rain = 0
KME1 092231Z 21012KT 26/05 A2977 RMK A01 T02640048  RH  025%=      5-min Rain = 0
KME1 092232Z 22011KT 26/05 A2977 RMK A01 T02640048  RH  025%=      5-min Rain = 0
KME1 092233Z 20013G18KT 26/05 A2977 RMK A01 T02630048  RH  025%=      5-min Rain = 0
KME1 092234Z 20013KT 26/05 A2977 RMK A01 T02630048  RH  025%=      5-min Rain = 0
KME1 092235Z 22014KT 26/05 A2977 RMK A01 T02610048  RH  025%=      5-min Rain = 0
KME1 092236Z 23014KT 26/05 A2977 RMK A01 T02620049  RH  025%=      5-min Rain = 0
KME1 092237Z 22013G18KT 26/05 A2977 RMK A01 T02620048  RH  025%=      5-min Rain = 0
KME1 092238Z 20013G18KT 26/05 A2977 RMK A01 T02640048  RH  025%=      5-min Rain = 0
KME1 092239Z 22015G21KT 27/05 A2977 RMK A01 T02650048  RH  025%=      5-min Rain = 0
KME1 092240Z 22015G20KT 27/05 A2977 RMK A01 T02660049  RH  025%=      5-min Rain = 0
KME1 092241Z 22013KT 26/05 A2977 RMK A01 T02640048  RH  025%=      5-min Rain = 0
KME1 092242Z 22016KT 26/05 A2977 RMK A01 T02610047  RH  025%=      5-min Rain = 0
KME1 092243Z 22014KT 26/05 A2977 RMK A01 T02600047  RH  025%=      5-min Rain = 0
KME1 092244Z 22012KT 26/05 A2977 RMK A01 T02590046  RH  025%=      5-min Rain = 0
KME1 092245Z 21011KT 26/05 A2977 RMK A01 T02590047  RH  026%=      5-min Rain = 0
KME1 092246Z 22011KT 26/05 A2977 RMK A01 T02590047  RH  026%=      5-min Rain = 0
KME1 092247Z 21008KT 26/05 A2977 RMK A01 T02590046  RH  025%=      5-min Rain = 0
KME1 092248Z 21008KT 26/05 A2977 RMK A01 T02590047  RH  026%=      5-min Rain = 0
KME1 092249Z 20010KT 26/05 A2977 RMK A01 T02590047  RH  026%=      5-min Rain = 0
KME1 092250Z 20010KT 26/05 A2977 RMK A01 T02590047  RH  026%=      5-min Rain = 0
KME1 092251Z 20010G15KT 26/05 A2977 RMK A01 T02590049  RH  026%=      5-min Rain = 0
KME1 092252Z 21012KT 26/05 A2977 RMK A01 T02600047  RH  025%=      5-min Rain = 0
KME1 092253Z 21011KT 26/05 A2977 RMK A01 T02610046  RH  025%=      5-min Rain = 0
KME1 092254Z 20010KT 26/04 A2977 RMK A01 T02630043  RH  024%=      5-min Rain = 0
KME1 092255Z 21010KT 27/04 A2977 RMK A01 T02650043  RH  024%=      5-min Rain = 0
KME1 092256Z 21010KT 27/04 A2977 RMK A01 T02660043  RH  024%=      5-min Rain = 0
KME1 092257Z 22014KT 27/05 A2977 RMK A01 T02670046  RH  024%=      5-min Rain = 0
KME1 092258Z 19014G19KT 27/06 A2977 RMK A01 T02680056  RH  026%=      5-min Rain = 0
KME1 092259Z 18013KT 27/06 A2977 RMK A01 T02660061  RH  027%=      5-min Rain = 0
KME1 092300Z 19012KT 26/06 A2977 RMK A01 T02630064  RH  028%=      5-min Rain = 0
KME1 092301Z 20010G17KT 26/07 A2977 RMK A01 T02620066  RH  029%=      5-min Rain = 0
KME1 092302Z 20016KT 26/07 A2977 RMK A01 T02630066  RH  029%=      5-min Rain = 0
KME1 092303Z 20015KT 26/07 A2977 RMK A01 T02620066  RH  029%=      5-min Rain = 0
KME1 092304Z 19016KT 26/07 A2977 RMK A01 T02610065  RH  029%=      5-min Rain = 0
KME1 092305Z 19014G20KT 26/07 A2977 RMK A01 T02600065  RH  029%=      5-min Rain = 0
KME1 092306Z 19010KT 26/07 A2977 RMK A01 T02590065  RH  029%=      5-min Rain = 0
KME1 092307Z 20013KT 26/07 A2977 RMK A01 T02600066  RH  029%=      5-min Rain = 0
KME1 092308Z 21014G19KT 26/07 A2977 RMK A01 T02610065  RH  029%=      5-min Rain = 0
KME1 092309Z 19013KT 26/06 A2977 RMK A01 T02620064  RH  028%=      5-min Rain = 0
KME1 092310Z 20014KT 26/06 A2977 RMK A01 T02610063  RH  028%=      5-min Rain = 0
KME1 092311Z 19013KT 26/06 A2977 RMK A01 T02590061  RH  028%=      5-min Rain = 0
KME1 092312Z 20013G19KT 26/06 A2977 RMK A01 T02590060  RH  028%=      5-min Rain = 0
KME1 092313Z 20017KT 26/06 A2977 RMK A01 T02590058  RH  028%=      5-min Rain = 0
KME1 092314Z 20014KT 26/06 A2977 RMK A01 T02570057  RH  028%=      5-min Rain = 0
KME1 092315Z 20014KT 26/06 A2977 RMK A01 T02550055  RH  028%=      5-min Rain = 0
KME1 092316Z 21014KT 25/06 A2977 RMK A01 T02540055  RH  028%=      5-min Rain = 0
KME1 092317Z 21014KT 25/05 A2977 RMK A01 T02540054  RH  028%=      5-min Rain = 0
KME1 092318Z 21012KT 25/05 A2977 RMK A01 T02540054  RH  028%=      5-min Rain = 0
KME1 092319Z 19012KT 25/05 A2977 RMK A01 T02540054  RH  028%=      5-min Rain = 0
KME1 092320Z 20009KT 25/06 A2977 RMK A01 T02540055  RH  028%=      5-min Rain = 0
KME1 092321Z 20010G16KT 26/06 A2977 RMK A01 T02560056  RH  028%=      5-min Rain = 0
KME1 092322Z 20013KT 26/06 A2977 RMK A01 T02570055  RH  027%=      5-min Rain = 0
KME1 092323Z 20014KT 26/06 A2977 RMK A01 T02570055  RH  027%=      5-min Rain = 0
KME1 092324Z 19015KT 26/06 A2977 RMK A01 T02560055  RH  027%=      5-min Rain = 0
KME1 092325Z 19014KT 26/05 A2977 RMK A01 T02550054  RH  028%=      5-min Rain = 0
KME1 092326Z 19013KT 25/05 A2977 RMK A01 T02540054  RH  028%=      5-min Rain = 0
KME1 092327Z 20012KT 25/06 A2977 RMK A01 T02540055  RH  028%=      5-min Rain = 0
KME1 092328Z 21014G19KT 26/06 A2977 RMK A01 T02550055  RH  028%=      5-min Rain = 0
KME1 092329Z 20013KT 26/06 A2977 RMK A01 T02550055  RH  028%=      5-min Rain = 0
KME1 092330Z 20012KT 26/06 A2977 RMK A01 T02550055  RH  028%=      5-min Rain = 0
KME1 092331Z 20013KT 25/05 A2977 RMK A01 T02540054  RH  028%=      5-min Rain = 0
KME1 092332Z 21012G17KT 25/05 A2977 RMK A01 T02540054  RH  028%=      5-min Rain = 0
KME1 092333Z 21014KT 25/05 A2977 RMK A01 T02530054  RH  028%=      5-min Rain = 0
KME1 092334Z 21013KT 25/05 A2977 RMK A01 T02530054  RH  028%=      5-min Rain = 0
KME1 092335Z 21012G17KT 25/05 A2977 RMK A01 T02530054  RH  028%=      5-min Rain = 0
KME1 092336Z 21013KT 25/05 A2977 RMK A01 T02530053  RH  028%=      5-min Rain = 0
KME1 092337Z 21014KT 25/05 A2977 RMK A01 T02520054  RH  028%=      5-min Rain = 0
KME1 092338Z 22013KT 25/06 A2977 RMK A01 T02520055  RH  028%=      5-min Rain = 0
KME1 092339Z 21012KT 25/06 A2977 RMK A01 T02510056  RH  029%=      5-min Rain = 0
KME1 092340Z 21010KT 25/06 A2977 RMK A01 T02510058  RH  029%=      5-min Rain = 0
KME1 092341Z 20009KT 25/06 A2977 RMK A01 T02520058  RH  029%=      5-min Rain = 0
KME1 092342Z 20009G14KT 25/06 A2977 RMK A01 T02520059  RH  029%=      5-min Rain = 0
KME1 092343Z 19011G16KT 25/06 A2977 RMK A01 T02500060  RH  030%=      5-min Rain = 0
KME1 092344Z 19012G17KT 25/06 A2977 RMK A01 T02470062  RH  030%=      5-min Rain = 0
KME1 092345Z 20012KT 24/06 A2977 RMK A01 T02440062  RH  031%=      5-min Rain = 0
KME1 092346Z 21015KT 24/06 A2977 RMK A01 T02430061  RH  031%=      5-min Rain = 0
KME1 092347Z 20012KT 24/06 A2977 RMK A01 T02420061  RH  031%=      5-min Rain = 0
KME1 092348Z 21012KT 24/06 A2977 RMK A01 T02420061  RH  031%=      5-min Rain = 0
KME1 092349Z 20013KT 24/06 A2977 RMK A01 T02420062  RH  031%=      5-min Rain = 0
KME1 092350Z 19010G15KT 24/06 A2977 RMK A01 T02420064  RH  032%=      5-min Rain = 0
KME1 092351Z 19013KT 24/07 A2977 RMK A01 T02400066  RH  033%=      5-min Rain = 0
KME1 092352Z 20012KT 24/07 A2977 RMK A01 T02390068  RH  033%=      5-min Rain = 0
KME1 092353Z 21011KT 24/07 A2977 RMK A01 T02390070  RH  034%=      5-min Rain = 0
KME1 092354Z 20011KT 24/07 A2977 RMK A01 T02380071  RH  034%=      5-min Rain = 0
KME1 092355Z 20010KT 24/07 A2978 RMK A01 T02370071  RH  034%=      5-min Rain = 0
KME1 092356Z 20012KT 24/07 A2977 RMK A01 T02360072  RH  035%=      5-min Rain = 0
KME1 092357Z 20011KT 24/07 A2978 RMK A01 T02360073  RH  035%=      5-min Rain = 0
KME1 092358Z 19010KT 24/07 A2978 RMK A01 T02360073  RH  035%=      5-min Rain = 0
KME1 092359Z 19010KT 24/07 A2978 RMK A01 T02360073  RH  035%=      5-min Rain = 0
KME1 100000Z 19008KT 24/07 A2978 RMK A01 T02360074  RH  035%=      5-min Rain = 0
KME1 100001Z 19009KT 24/07 A2978 RMK A01 T02370074  RH  035%=      5-min Rain = 0
KME1 100002Z 20012KT 24/07 A2978 RMK A01 T02380074  RH  035%=      5-min Rain = 0
KME1 100003Z 19009KT 24/08 A2978 RMK A01 T02380075  RH  035%=      5-min Rain = 0
KME1 100004Z 20008KT 24/08 A2978 RMK A01 T02390075  RH  035%=      5-min Rain = 0
KME1 100005Z 19012KT 24/08 A2978 RMK A01 T02390075  RH  035%=      5-min Rain = 0
KME1 100006Z 19009KT 24/08 A2978 RMK A01 T02390076  RH  035%=      5-min Rain = 0
KME1 100007Z 19012KT 24/08 A2978 RMK A01 T02380075  RH  035%=      5-min Rain = 0
KME1 100008Z 20012KT 24/08 A2978 RMK A01 T02370076  RH  035%=      5-min Rain = 0
KME1 100009Z 20012KT 24/08 A2978 RMK A01 T02370075  RH  035%=      5-min Rain = 0
KME1 100010Z 19011KT 24/08 A2978 RMK A01 T02370075  RH  035%=      5-min Rain = 0
KME1 100011Z 19009KT 24/08 A2978 RMK A01 T02370076  RH  035%=      5-min Rain = 0
KME1 100012Z 18009KT 24/08 A2978 RMK A01 T02380076  RH  036%=      5-min Rain = 0
KME1 100013Z 18011KT 24/08 A2978 RMK A01 T02370077  RH  036%=      5-min Rain = 0
KME1 100014Z 18010KT 24/08 A2978 RMK A01 T02370078  RH  036%=      5-min Rain = 0
KME1 100015Z 18011KT 24/08 A2978 RMK A01 T02360077  RH  036%=      5-min Rain = 0
KME1 100016Z 18011KT 24/08 A2978 RMK A01 T02360078  RH  036%=      5-min Rain = 0
KME1 100017Z 18011KT 24/08 A2978 RMK A01 T02360078  RH  036%=      5-min Rain = 0
KME1 100018Z 18010KT 24/08 A2978 RMK A01 T02350078  RH  037%=      5-min Rain = 0
KME1 100019Z 18011KT 23/08 A2978 RMK A01 T02340078  RH  037%=      5-min Rain = 0
KME1 100020Z 19009KT 23/08 A2978 RMK A01 T02340078  RH  037%=      5-min Rain = 0
KME1 100021Z 18012KT 23/08 A2978 RMK A01 T02340079  RH  037%=      5-min Rain = 0
KME1 100022Z 18012KT 23/08 A2978 RMK A01 T02330078  RH  037%=      5-min Rain = 0
KME1 100023Z 18012KT 23/08 A2978 RMK A01 T02320078  RH  037%=      5-min Rain = 0
KME1 100024Z 18012KT 23/08 A2978 RMK A01 T02320079  RH  037%=      5-min Rain = 0
KME1 100025Z 18012KT 23/08 A2978 RMK A01 T02310078  RH  037%=      5-min Rain = 0
KME1 100026Z 18012KT 23/08 A2978 RMK A01 T02310078  RH  038%=      5-min Rain = 0
KME1 100027Z 18012KT 23/08 A2978 RMK A01 T02300079  RH  038%=      5-min Rain = 0
KME1 100028Z 18012KT 23/08 A2978 RMK A01 T02290078  RH  038%=      5-min Rain = 0
KME1 100029Z 18010KT 23/08 A2978 RMK A01 T02290079  RH  038%=      5-min Rain = 0
KME1 100030Z 18010KT 23/08 A2978 RMK A01 T02280079  RH  038%=      5-min Rain = 0
KME1 100031Z 17010G15KT 23/08 A2978 RMK A01 T02270079  RH  039%=      5-min Rain = 0
KME1 100032Z 18010KT 23/08 A2978 RMK A01 T02260079  RH  039%=      5-min Rain = 0
KME1 100033Z 18009KT 23/08 A2978 RMK A01 T02260079  RH  039%=      5-min Rain = 0
KME1 100034Z 18008KT 23/08 A2978 RMK A01 T02260079  RH  039%=      5-min Rain = 0
KME1 100035Z 18009KT 23/08 A2978 RMK A01 T02250079  RH  039%=      5-min Rain = 0
KME1 100036Z 18010KT 23/08 A2978 RMK A01 T02250079  RH  039%=      5-min Rain = 0
KME1 100037Z 18010KT 23/08 A2978 RMK A01 T02250080  RH  039%=      5-min Rain = 0
KME1 100038Z 18010KT 22/08 A2978 RMK A01 T02240079  RH  039%=      5-min Rain = 0
KME1 100039Z 18010KT 23/08 A2978 RMK A01 T02250080  RH  039%=      5-min Rain = 0
KME1 100040Z 18010KT 22/08 A2978 RMK A01 T02240080  RH  039%=      5-min Rain = 0
KME1 100041Z 18010KT 23/08 A2978 RMK A01 T02250080  RH  039%=      5-min Rain = 0
KME1 100042Z 19010KT 23/08 A2978 RMK A01 T02250080  RH  039%=      5-min Rain = 0
KME1 100043Z 18009KT 22/08 A2978 RMK A01 T02240080  RH  040%=      5-min Rain = 0
KME1 100044Z 19009KT 22/08 A2979 RMK A01 T02240080  RH  040%=      5-min Rain = 0
KME1 100045Z 18006KT 22/08 A2979 RMK A01 T02240081  RH  040%=      5-min Rain = 0
KME1 100046Z 18008KT 22/08 A2979 RMK A01 T02230081  RH  040%=      5-min Rain = 0
KME1 100047Z 18009KT 22/08 A2979 RMK A01 T02220080  RH  040%=      5-min Rain = 0
KME1 100048Z 18009KT 22/08 A2979 RMK A01 T02220080  RH  040%=      5-min Rain = 0
KME1 100049Z 19008KT 22/08 A2979 RMK A01 T02220080  RH  040%=      5-min Rain = 0
KME1 100050Z 19007KT 22/08 A2979 RMK A01 T02220081  RH  040%=      5-min Rain = 0
KME1 100051Z 18008KT 22/08 A2979 RMK A01 T02210080  RH  040%=      5-min Rain = 0
KME1 100052Z 18009KT 22/08 A2979 RMK A01 T02210080  RH  040%=      5-min Rain = 0
KME1 100053Z 19009KT 22/08 A2979 RMK A01 T02210080  RH  040%=      5-min Rain = 0
KME1 100054Z 18007KT 22/08 A2979 RMK A01 T02210080  RH  040%=      5-min Rain = 0
KME1 100055Z 18007KT 22/08 A2979 RMK A01 T02210080  RH  040%=      5-min Rain = 0
KME1 100056Z 19006KT 22/08 A2979 RMK A01 T02200081  RH  041%=      5-min Rain = 0
KME1 100057Z 19008KT 22/08 A2979 RMK A01 T02200081  RH  041%=      5-min Rain = 0
KME1 100058Z 18008KT 22/08 A2979 RMK A01 T02190080  RH  041%=      5-min Rain = 0
KME1 100059Z 17008KT 22/08 A2979 RMK A01 T02190080  RH  041%=      5-min Rain = 0
KME1 100100Z 18009KT 22/08 A2979 RMK A01 T02190080  RH  041%=      5-min Rain = 0
KME1 100101Z 18009KT 22/08 A2979 RMK A01 T02190081  RH  041%=      5-min Rain = 0
KME1 100102Z 18008KT 22/08 A2979 RMK A01 T02180081  RH  041%=      5-min Rain = 0
KME1 100103Z 18007KT 22/08 A2979 RMK A01 T02180081  RH  041%=      5-min Rain = 0
KME1 100104Z 18007KT 22/08 A2979 RMK A01 T02170081  RH  042%=      5-min Rain = 0
KME1 100105Z 18006KT 22/08 A2979 RMK A01 T02160082  RH  042%=      5-min Rain = 0
KME1 100106Z 19006KT 22/08 A2979 RMK A01 T02160082  RH  042%=      5-min Rain = 0
KME1 100107Z 19008KT 22/08 A2979 RMK A01 T02150082  RH  042%=      5-min Rain = 0
KME1 100108Z 18007KT 22/08 A2979 RMK A01 T02150082  RH  043%=      5-min Rain = 0
KME1 100109Z 17008KT 21/08 A2979 RMK A01 T02140082  RH  043%=      5-min Rain = 0
KME1 100110Z 18008KT 22/08 A2979 RMK A01 T02150084  RH  043%=      5-min Rain = 0
KME1 100111Z 18009KT 22/08 A2979 RMK A01 T02150084  RH  043%=      5-min Rain = 0
KME1 100112Z 18008KT 21/08 A2979 RMK A01 T02140084  RH  043%=      5-min Rain = 0
KME1 100113Z 18009KT 21/09 A2979 RMK A01 T02140085  RH  043%=      5-min Rain = 0
KME1 100114Z 18009KT 21/09 A2979 RMK A01 T02140085  RH  044%=      5-min Rain = 0
KME1 100115Z 18008KT 21/09 A2979 RMK A01 T02140085  RH  044%=      5-min Rain = 0
KME1 100116Z 18009KT 21/09 A2979 RMK A01 T02120085  RH  044%=      5-min Rain = 0
KME1 100117Z 17008KT 21/09 A2979 RMK A01 T02120085  RH  044%=      5-min Rain = 0
KME1 100118Z 18009KT 21/08 A2979 RMK A01 T02110084  RH  044%=      5-min Rain = 0
KME1 100119Z 18008KT 21/08 A2979 RMK A01 T02110084  RH  044%=      5-min Rain = 0
KME1 100120Z 18007KT 21/09 A298 RMK A01 T02110085  RH  044%=      5-min Rain = 0
KME1 100121Z 18007KT 21/08 A298 RMK A01 T02100084  RH  044%=      5-min Rain = 0
KME1 100122Z 18006KT 21/09 A298 RMK A01 T02100085  RH  045%=      5-min Rain = 0
KME1 100123Z 18007KT 21/08 A298 RMK A01 T02090084  RH  045%=      5-min Rain = 0
KME1 100124Z 19006KT 21/08 A298 RMK A01 T02090084  RH  045%=      5-min Rain = 0
KME1 100125Z 18005KT 21/08 A298 RMK A01 T02090084  RH  045%=      5-min Rain = 0
KME1 100126Z 20007KT 21/08 A298 RMK A01 T02080083  RH  045%=      5-min Rain = 0
KME1 100127Z 19006KT 21/08 A298 RMK A01 T02070083  RH  045%=      5-min Rain = 0
KME1 100128Z 20006KT 21/08 A298 RMK A01 T02070082  RH  045%=      5-min Rain = 0
KME1 100129Z 19007KT 21/08 A298 RMK A01 T02070082  RH  044%=      5-min Rain = 0
KME1 100130Z 19006KT 21/08 A298 RMK A01 T02060081  RH  044%=      5-min Rain = 0
KME1 100131Z 19006KT 21/08 A298 RMK A01 T02060081  RH  045%=      5-min Rain = 0
KME1 100132Z 19008KT 21/08 A298 RMK A01 T02050081  RH  045%=      5-min Rain = 0
KME1 100133Z 19007KT 21/08 A298 RMK A01 T02050080  RH  045%=      5-min Rain = 0
KME1 100134Z 19008KT 21/08 A298 RMK A01 T02050080  RH  044%=      5-min Rain = 0
KME1 100135Z 19008KT 21/08 A298 RMK A01 T02060080  RH  044%=      5-min Rain = 0
KME1 100136Z 19009KT 21/08 A298 RMK A01 T02060080  RH  044%=      5-min Rain = 0
KME1 100137Z 20008KT 21/08 A298 RMK A01 T02060079  RH  044%=      5-min Rain = 0
KME1 100138Z 19009KT 21/08 A298 RMK A01 T02060079  RH  044%=      5-min Rain = 0
KME1 100139Z 19008KT 21/08 A298 RMK A01 T02060079  RH  044%=      5-min Rain = 0
KME1 100140Z 20007KT 21/08 A298 RMK A01 T02050079  RH  044%=      5-min Rain = 0
KME1 100141Z 19008KT 20/08 A298 RMK A01 T02040078  RH  044%=      5-min Rain = 0
KME1 100142Z 19007KT 20/08 A298 RMK A01 T02040078  RH  044%=      5-min Rain = 0
KME1 100143Z 19008KT 20/08 A298 RMK A01 T02040078  RH  044%=      5-min Rain = 0
KME1 100144Z 19006KT 20/08 A298 RMK A01 T02030078  RH  044%=      5-min Rain = 0
KME1 100145Z 19008KT 20/08 A298 RMK A01 T02020078  RH  045%=      5-min Rain = 0
KME1 100146Z 19007KT 20/08 A298 RMK A01 T02020078  RH  045%=      5-min Rain = 0
KME1 100147Z 19008KT 20/08 A298 RMK A01 T02020078  RH  045%=      5-min Rain = 0
KME1 100148Z 19008KT 20/08 A298 RMK A01 T02020078  RH  045%=      5-min Rain = 0
KME1 100149Z 19007KT 20/08 A2981 RMK A01 T02010078  RH  045%=      5-min Rain = 0
KME1 100150Z 19008KT 20/08 A2981 RMK A01 T02000078  RH  045%=      5-min Rain = 0
KME1 100151Z 19009KT 20/08 A2981 RMK A01 T02000078  RH  045%=      5-min Rain = 0
KME1 100152Z 19008KT 20/08 A2981 RMK A01 T02000078  RH  045%=      5-min Rain = 0
KME1 100153Z 19007KT 20/08 A2981 RMK A01 T02000078  RH  045%=      5-min Rain = 0
KME1 100154Z 19008KT 20/08 A2981 RMK A01 T01990077  RH  045%=      5-min Rain = 0
KME1 100155Z 19009KT 20/08 A2981 RMK A01 T01980078  RH  046%=      5-min Rain = 0
KME1 100156Z 19008KT 20/08 A2981 RMK A01 T01980078  RH  046%=      5-min Rain = 0
KME1 100157Z 19007KT 20/08 A2981 RMK A01 T01980078  RH  046%=      5-min Rain = 0
KME1 100158Z 19007KT 20/08 A2981 RMK A01 T01970078  RH  046%=      5-min Rain = 0
KME1 100159Z 19007KT 20/08 A2981 RMK A01 T01970078  RH  046%=      5-min Rain = 0
KME1 100200Z 19007KT 20/08 A2981 RMK A01 T01960078  RH  046%=      5-min Rain = 0
KME1 100201Z 19007KT 20/08 A2981 RMK A01 T01960078  RH  046%=      5-min Rain = 0
KME1 100202Z 19007KT 20/08 A2981 RMK A01 T01950077  RH  047%=      5-min Rain = 0
KME1 100203Z 19007KT 19/08 A2981 RMK A01 T01940078  RH  047%=      5-min Rain = 0
KME1 100204Z 19007KT 19/08 A2981 RMK A01 T01940078  RH  047%=      5-min Rain = 0
KME1 100205Z 19007KT 19/08 A2981 RMK A01 T01940078  RH  047%=      5-min Rain = 0
KME1 100206Z 19008KT 19/08 A2981 RMK A01 T01930078  RH  047%=      5-min Rain = 0
KME1 100207Z 19007KT 19/08 A2982 RMK A01 T01920078  RH  047%=      5-min Rain = 0
KME1 100208Z 19008KT 19/08 A2982 RMK A01 T01920077  RH  047%=      5-min Rain = 0
KME1 100209Z 19008KT 19/08 A2982 RMK A01 T01910078  RH  048%=      5-min Rain = 0
KME1 100210Z 19008KT 19/08 A2982 RMK A01 T01910078  RH  048%=      5-min Rain = 0
KME1 100211Z 19007KT 19/08 A2982 RMK A01 T01910078  RH  048%=      5-min Rain = 0
KME1 100212Z 19007KT 19/08 A2982 RMK A01 T01910078  RH  048%=      5-min Rain = 0
KME1 100213Z 19007KT 19/08 A2982 RMK A01 T01900078  RH  048%=      5-min Rain = 0
KME1 100214Z 19008KT 19/08 A2982 RMK A01 T01900078  RH  048%=      5-min Rain = 0
KME1 100215Z 19007KT 19/08 A2982 RMK A01 T01890078  RH  048%=      5-min Rain = 0
KME1 100216Z 19007KT 19/08 A2982 RMK A01 T01890078  RH  048%=      5-min Rain = 0
KME1 100217Z 19007KT 19/08 A2982 RMK A01 T01880078  RH  049%=      5-min Rain = 0
KME1 100218Z 19006KT 19/08 A2982 RMK A01 T01880078  RH  049%=      5-min Rain = 0
KME1 100219Z 20006KT 19/08 A2982 RMK A01 T01870078  RH  049%=      5-min Rain = 0
KME1 100220Z 19006KT 19/08 A2982 RMK A01 T01870078  RH  049%=      5-min Rain = 0
KME1 100221Z 19006KT 19/08 A2982 RMK A01 T01870078  RH  049%=      5-min Rain = 0
KME1 100222Z 19006KT 19/08 A2982 RMK A01 T01860078  RH  049%=      5-min Rain = 0
KME1 100223Z 18009KT 19/08 A2982 RMK A01 T01860079  RH  049%=      5-min Rain = 0
KME1 100224Z 19008KT 19/08 A2982 RMK A01 T01860079  RH  050%=      5-min Rain = 0
KME1 100225Z 19009KT 19/08 A2982 RMK A01 T01870079  RH  050%=      5-min Rain = 0
KME1 100226Z 20008KT 19/08 A2982 RMK A01 T01880080  RH  050%=      5-min Rain = 0
KME1 100227Z 20009KT 19/08 A2982 RMK A01 T01880080  RH  049%=      5-min Rain = 0
KME1 100228Z 20008KT 19/08 A2982 RMK A01 T01890081  RH  049%=      5-min Rain = 0
KME1 100229Z 19007KT 19/08 A2982 RMK A01 T01900080  RH  049%=      5-min Rain = 0
KME1 100230Z 20007KT 19/08 A2982 RMK A01 T01890080  RH  049%=      5-min Rain = 0
KME1 100231Z 19007KT 19/08 A2982 RMK A01 T01890081  RH  049%=      5-min Rain = 0
KME1 100232Z 19008KT 19/08 A2982 RMK A01 T01880081  RH  049%=      5-min Rain = 0
KME1 100233Z 19007KT 19/08 A2982 RMK A01 T01880081  RH  050%=      5-min Rain = 0
KME1 100234Z 19008KT 19/08 A2982 RMK A01 T01870081  RH  050%=      5-min Rain = 0
KME1 100235Z 20007KT 19/08 A2982 RMK A01 T01880081  RH  050%=      5-min Rain = 0
KME1 100236Z 20008KT 19/08 A2982 RMK A01 T01870081  RH  050%=      5-min Rain = 0
KME1 100237Z 20007KT 19/08 A2982 RMK A01 T01870081  RH  050%=      5-min Rain = 0
KME1 100238Z 20007KT 19/08 A2982 RMK A01 T01870081  RH  050%=      5-min Rain = 0
KME1 100239Z 20008KT 19/08 A2982 RMK A01 T01860081  RH  050%=      5-min Rain = 0
KME1 100240Z 19007KT 19/08 A2982 RMK A01 T01850081  RH  051%=      5-min Rain = 0
KME1 100241Z 20007KT 19/08 A2983 RMK A01 T01850081  RH  051%=      5-min Rain = 0
KME1 100242Z 20008KT 18/08 A2983 RMK A01 T01840081  RH  051%=      5-min Rain = 0
KME1 100243Z 20008KT 18/08 A2983 RMK A01 T01840081  RH  051%=      5-min Rain = 0
KME1 100244Z 20007KT 18/08 A2982 RMK A01 T01830081  RH  051%=      5-min Rain = 0
KME1 100245Z 20008KT 18/08 A2982 RMK A01 T01830081  RH  051%=      5-min Rain = 0
KME1 100246Z 19007KT 18/08 A2982 RMK A01 T01820081  RH  052%=      5-min Rain = 0
KME1 100247Z 19008KT 18/08 A2982 RMK A01 T01820081  RH  052%=      5-min Rain = 0
KME1 100248Z 20008KT 18/08 A2982 RMK A01 T01810082  RH  052%=      5-min Rain = 0
KME1 100249Z 19008KT 18/08 A2982 RMK A01 T01810081  RH  052%=      5-min Rain = 0
KME1 100250Z 20007KT 18/08 A2982 RMK A01 T01810082  RH  052%=      5-min Rain = 0
KME1 100251Z 19007KT 18/08 A2982 RMK A01 T01800082  RH  053%=      5-min Rain = 0
KME1 100252Z 20007KT 18/08 A2982 RMK A01 T01790082  RH  053%=      5-min Rain = 0
KME1 100253Z 20007KT 18/08 A2982 RMK A01 T01790082  RH  053%=      5-min Rain = 0
KME1 100254Z 20009KT 18/08 A2982 RMK A01 T01790082  RH  053%=      5-min Rain = 0
KME1 100255Z 20008KT 18/08 A2982 RMK A01 T01790083  RH  054%=      5-min Rain = 0
KME1 100256Z 19007KT 18/08 A2982 RMK A01 T01790083  RH  053%=      5-min Rain = 0
KME1 100257Z 19008KT 18/08 A2982 RMK A01 T01790083  RH  053%=      5-min Rain = 0
KME1 100258Z 19008KT 18/08 A2982 RMK A01 T01790084  RH  054%=      5-min Rain = 0
KME1 100259Z 20009KT 18/08 A2982 RMK A01 T01790084  RH  054%=      5-min Rain = 0
KME1 100300Z 20008KT 18/09 A2982 RMK A01 T01790085  RH  054%=      5-min Rain = 0
KME1 100301Z 20008KT 18/09 A2982 RMK A01 T01800085  RH  054%=      5-min Rain = 0
KME1 100302Z 19009KT 18/09 A2982 RMK A01 T01800085  RH  054%=      5-min Rain = 0
KME1 100303Z 19008KT 18/09 A2982 RMK A01 T01800086  RH  054%=      5-min Rain = 0
KME1 100304Z 19008KT 18/09 A2982 RMK A01 T01800086  RH  054%=      5-min Rain = 0
KME1 100305Z 19008KT 18/09 A2982 RMK A01 T01800086  RH  054%=      5-min Rain = 0
KME1 100306Z 19008KT 18/09 A2982 RMK A01 T01790086  RH  055%=      5-min Rain = 0
KME1 100307Z 20007KT 18/09 A2982 RMK A01 T01790087  RH  055%=      5-min Rain = 0
KME1 100308Z 20008KT 18/09 A2982 RMK A01 T01790087  RH  055%=      5-min Rain = 0
KME1 100309Z 20008KT 18/09 A2982 RMK A01 T01790087  RH  055%=      5-min Rain = 0
KME1 100310Z 20008KT 18/09 A2982 RMK A01 T01790087  RH  055%=      5-min Rain = 0
KME1 100311Z 20008KT 18/09 A2982 RMK A01 T01790087  RH  055%=      5-min Rain = 0
KME1 100312Z 20007KT 18/09 A2982 RMK A01 T01790087  RH  055%=      5-min Rain = 0
KME1 100313Z 19008KT 18/09 A2982 RMK A01 T01780087  RH  055%=      5-min Rain = 0
KME1 100314Z 19008KT 18/09 A2982 RMK A01 T01770087  RH  056%=      5-min Rain = 0
KME1 100315Z 20007KT 18/09 A2982 RMK A01 T01770088  RH  056%=      5-min Rain = 0
KME1 100316Z 20008KT 18/09 A2982 RMK A01 T01770087  RH  056%=      5-min Rain = 0
KME1 100317Z 20006KT 18/09 A2983 RMK A01 T01770087  RH  056%=      5-min Rain = 0
KME1 100318Z 20007KT 18/09 A2983 RMK A01 T01760087  RH  056%=      5-min Rain = 0
KME1 100319Z 20008KT 18/09 A2983 RMK A01 T01750087  RH  056%=      5-min Rain = 0
KME1 100320Z 20007KT 17/09 A2983 RMK A01 T01740087  RH  056%=      5-min Rain = 0
KME1 100321Z 20006KT 17/09 A2983 RMK A01 T01730086  RH  057%=      5-min Rain = 0
KME1 100322Z 20009KT 17/09 A2983 RMK A01 T01720087  RH  057%=      5-min Rain = 0
KME1 100323Z 20008KT 17/09 A2983 RMK A01 T01720087  RH  057%=      5-min Rain = 0
KME1 100324Z 20009KT 17/09 A2983 RMK A01 T01730087  RH  057%=      5-min Rain = 0
KME1 100325Z 20009KT 17/09 A2983 RMK A01 T01730087  RH  057%=      5-min Rain = 0
KME1 100326Z 20008KT 17/09 A2983 RMK A01 T01730087  RH  057%=      5-min Rain = 0
KME1 100327Z 19007KT 17/09 A2983 RMK A01 T01730087  RH  057%=      5-min Rain = 0
KME1 100328Z 20008KT 17/09 A2983 RMK A01 T01720087  RH  057%=      5-min Rain = 0
KME1 100329Z 20009KT 17/09 A2983 RMK A01 T01710086  RH  057%=      5-min Rain = 0
KME1 100330Z 20007KT 17/09 A2983 RMK A01 T01710087  RH  058%=      5-min Rain = 0
KME1 100331Z 20008KT 17/09 A2983 RMK A01 T01700087  RH  058%=      5-min Rain = 0
KME1 100332Z 20007KT 17/09 A2983 RMK A01 T01700087  RH  058%=      5-min Rain = 0
KME1 100333Z 20008KT 17/09 A2983 RMK A01 T01700086  RH  058%=      5-min Rain = 0
KME1 100334Z 19009KT 17/09 A2983 RMK A01 T01690087  RH  058%=      5-min Rain = 0
KME1 100335Z 20009KT 17/09 A2983 RMK A01 T01690087  RH  058%=      5-min Rain = 0
KME1 100336Z 20008KT 17/09 A2983 RMK A01 T01700087  RH  058%=      5-min Rain = 0
KME1 100337Z 20007KT 17/09 A2983 RMK A01 T01690087  RH  058%=      5-min Rain = 0
KME1 100338Z 20008KT 17/09 A2983 RMK A01 T01690087  RH  058%=      5-min Rain = 0
KME1 100339Z 20008KT 17/09 A2983 RMK A01 T01680087  RH  059%=      5-min Rain = 0
KME1 100340Z 20008KT 17/09 A2983 RMK A01 T01680087  RH  059%=      5-min Rain = 0
KME1 100341Z 20007KT 17/09 A2983 RMK A01 T01680087  RH  059%=      5-min Rain = 0
KME1 100342Z 19008KT 17/09 A2983 RMK A01 T01670087  RH  059%=      5-min Rain = 0
KME1 100343Z 20007KT 17/09 A2983 RMK A01 T01670087  RH  059%=      5-min Rain = 0
KME1 100344Z 20007KT 17/09 A2983 RMK A01 T01660086  RH  059%=      5-min Rain = 0
KME1 100345Z 20006KT 17/09 A2983 RMK A01 T01650087  RH  060%=      5-min Rain = 0
KME1 100346Z 19007KT 17/09 A2983 RMK A01 T01650086  RH  060%=      5-min Rain = 0
KME1 100347Z 19007KT 16/09 A2983 RMK A01 T01640086  RH  060%=      5-min Rain = 0
KME1 100348Z 19006KT 16/09 A2983 RMK A01 T01630087  RH  060%=      5-min Rain = 0
KME1 100349Z 19006KT 16/09 A2983 RMK A01 T01630087  RH  060%=      5-min Rain = 0
KME1 100350Z 19006KT 16/09 A2983 RMK A01 T01620087  RH  061%=      5-min Rain = 0
KME1 100351Z 19006KT 16/09 A2983 RMK A01 T01620087  RH  061%=      5-min Rain = 0
KME1 100352Z 19006KT 16/09 A2983 RMK A01 T01620087  RH  061%=      5-min Rain = 0
KME1 100353Z 20006KT 16/09 A2983 RMK A01 T01600086  RH  061%=      5-min Rain = 0
KME1 100354Z 19006KT 16/09 A2983 RMK A01 T01600087  RH  062%=      5-min Rain = 0
KME1 100355Z 20006KT 16/09 A2983 RMK A01 T01600087  RH  062%=      5-min Rain = 0
KME1 100356Z 20006KT 16/09 A2983 RMK A01 T01600087  RH  062%=      5-min Rain = 0
KME1 100357Z 19006KT 16/09 A2983 RMK A01 T01590087  RH  062%=      5-min Rain = 0
KME1 100358Z 19006KT 16/09 A2983 RMK A01 T01580087  RH  062%=      5-min Rain = 0
KME1 100359Z 19007KT 16/09 A2983 RMK A01 T01580087  RH  063%=      5-min Rain = 0
KME1 100400Z 19006KT 16/09 A2983 RMK A01 T01570088  RH  063%=      5-min Rain = 0
KME1 100401Z 20007KT 16/09 A2983 RMK A01 T01580088  RH  063%=      5-min Rain = 0
KME1 100402Z 19006KT 16/09 A2983 RMK A01 T01580088  RH  063%=      5-min Rain = 0
KME1 100403Z 19007KT 16/09 A2983 RMK A01 T01570089  RH  064%=      5-min Rain = 0
KME1 100404Z 19006KT 16/09 A2983 RMK A01 T01570089  RH  064%=      5-min Rain = 0
KME1 100405Z 19008KT 16/09 A2983 RMK A01 T01570089  RH  064%=      5-min Rain = 0
KME1 100406Z 19007KT 16/09 A2983 RMK A01 T01570090  RH  064%=      5-min Rain = 0
KME1 100407Z 19007KT 16/09 A2983 RMK A01 T01570091  RH  065%=      5-min Rain = 0
KME1 100408Z 19008KT 16/09 A2983 RMK A01 T01570091  RH  065%=      5-min Rain = 0
KME1 100409Z 19008KT 16/09 A2983 RMK A01 T01570091  RH  065%=      5-min Rain = 0
KME1 100410Z 19008KT 16/09 A2983 RMK A01 T01580092  RH  065%=      5-min Rain = 0
KME1 100411Z 19009KT 16/09 A2983 RMK A01 T01570092  RH  065%=      5-min Rain = 0
KME1 100412Z 19008KT 16/09 A2983 RMK A01 T01580093  RH  065%=      5-min Rain = 0
KME1 100413Z 19007KT 16/09 A2983 RMK A01 T01590094  RH  065%=      5-min Rain = 0
KME1 100414Z 19009KT 16/09 A2983 RMK A01 T01580094  RH  066%=      5-min Rain = 0
KME1 100415Z 19009KT 16/10 A2983 RMK A01 T01590096  RH  066%=      5-min Rain = 0
KME1 100416Z 19009KT 16/10 A2983 RMK A01 T01590097  RH  066%=      5-min Rain = 0
KME1 100417Z 19008KT 16/10 A2983 RMK A01 T01600097  RH  066%=      5-min Rain = 0
KME1 100418Z 19008KT 16/10 A2983 RMK A01 T01600097  RH  066%=      5-min Rain = 0
KME1 100419Z 19008KT 16/10 A2983 RMK A01 T01590098  RH  067%=      5-min Rain = 0
KME1 100420Z 19008KT 16/10 A2983 RMK A01 T01590098  RH  067%=      5-min Rain = 0
KME1 100421Z 19009KT 16/10 A2983 RMK A01 T01590098  RH  067%=      5-min Rain = 0
KME1 100422Z 19009KT 16/10 A2983 RMK A01 T01590099  RH  067%=      5-min Rain = 0
KME1 100423Z 20010KT 16/10 A2983 RMK A01 T01590100  RH  068%=      5-min Rain = 0
KME1 100424Z 20009KT 16/10 A2983 RMK A01 T01600101  RH  068%=      5-min Rain = 0
KME1 100425Z 19010KT 16/10 A2983 RMK A01 T01610101  RH  068%=      5-min Rain = 0
KME1 100426Z 20008KT 16/10 A2983 RMK A01 T01610101  RH  068%=      5-min Rain = 0
KME1 100427Z 19010KT 16/10 A2983 RMK A01 T01610102  RH  068%=      5-min Rain = 0
KME1 100428Z 19008KT 16/10 A2983 RMK A01 T01610103  RH  068%=      5-min Rain = 0
KME1 100429Z 20010KT 16/10 A2983 RMK A01 T01610103  RH  069%=      5-min Rain = 0
KME1 100430Z 20010KT 16/10 A2983 RMK A01 T01610104  RH  069%=      5-min Rain = 0
KME1 100431Z 20009KT 16/10 A2983 RMK A01 T01610104  RH  069%=      5-min Rain = 0
KME1 100432Z 19010KT 16/10 A2983 RMK A01 T01610104  RH  069%=      5-min Rain = 0
KME1 100433Z 20010KT 16/11 A2983 RMK A01 T01610105  RH  069%=      5-min Rain = 0
KME1 100434Z 20009KT 16/11 A2983 RMK A01 T01610105  RH  069%=      5-min Rain = 0
KME1 100435Z 19011KT 16/11 A2983 RMK A01 T01610105  RH  070%=      5-min Rain = 0
KME1 100436Z 20009KT 16/11 A2983 RMK A01 T01610106  RH  070%=      5-min Rain = 0
KME1 100437Z 20010KT 16/11 A2983 RMK A01 T01610106  RH  070%=      5-min Rain = 0
KME1 100438Z 19010KT 16/11 A2983 RMK A01 T01610106  RH  070%=      5-min Rain = 0
KME1 100439Z 19009KT 16/11 A2983 RMK A01 T01610106  RH  070%=      5-min Rain = 0
KME1 100440Z 19010KT 16/11 A2983 RMK A01 T01600106  RH  070%=      5-min Rain = 0
KME1 100441Z 19010KT 16/11 A2983 RMK A01 T01600107  RH  070%=      5-min Rain = 0
KME1 100442Z 19009KT 16/11 A2983 RMK A01 T01600107  RH  070%=      5-min Rain = 0
KME1 100443Z 20010KT 16/11 A2983 RMK A01 T01600107  RH  071%=      5-min Rain = 0
KME1 100444Z 19010KT 16/11 A2983 RMK A01 T01600107  RH  071%=      5-min Rain = 0
KME1 100445Z 20011KT 16/11 A2983 RMK A01 T01590107  RH  071%=      5-min Rain = 0
KME1 100446Z 19012KT 16/11 A2983 RMK A01 T01600108  RH  071%=      5-min Rain = 0
KME1 100447Z 19012KT 16/11 A2983 RMK A01 T01590108  RH  071%=      5-min Rain = 0
KME1 100448Z 19011KT 16/11 A2983 RMK A01 T01600108  RH  071%=      5-min Rain = 0
KME1 100449Z 19010KT 16/11 A2983 RMK A01 T01600109  RH  072%=      5-min Rain = 0
KME1 100450Z 19011KT 16/11 A2983 RMK A01 T01590108  RH  072%=      5-min Rain = 0
KME1 100451Z 19011KT 16/11 A2983 RMK A01 T01590109  RH  072%=      5-min Rain = 0
KME1 100452Z 19011G17KT 16/11 A2983 RMK A01 T01590109  RH  072%=      5-min Rain = 0
KME1 100453Z 19012KT 16/11 A2983 RMK A01 T01590110  RH  072%=      5-min Rain = 0
KME1 100454Z 19011KT 16/11 A2983 RMK A01 T01590110  RH  072%=      5-min Rain = 0
KME1 100455Z 19011KT 16/11 A2983 RMK A01 T01600110  RH  072%=      5-min Rain = 0
KME1 100456Z 19011KT 16/11 A2983 RMK A01 T01600110  RH  073%=      5-min Rain = 0
KME1 100457Z 19010KT 16/11 A2983 RMK A01 T01590111  RH  073%=      5-min Rain = 0
KME1 100458Z 19010KT 16/11 A2983 RMK A01 T01590111  RH  073%=      5-min Rain = 0
KME1 100459Z 19010KT 16/11 A2983 RMK A01 T01590110  RH  073%=      5-min Rain = 0
KME1 100500Z 20011KT 16/11 A2983 RMK A01 T01590111  RH  073%=      5-min Rain = 0
KME1 100501Z 19011KT 16/11 A2983 RMK A01 T01580111  RH  073%=      5-min Rain = 0
KME1 100502Z 19010KT 16/11 A2983 RMK A01 T01580111  RH  074%=      5-min Rain = 0
KME1 100503Z 19011KT 16/11 A2983 RMK A01 T01580111  RH  074%=      5-min Rain = 0
KME1 100504Z 19010KT 16/11 A2983 RMK A01 T01580111  RH  074%=      5-min Rain = 0
KME1 100505Z 19011KT 16/11 A2983 RMK A01 T01570111  RH  074%=      5-min Rain = 0
KME1 100506Z 19011KT 16/11 A2983 RMK A01 T01570112  RH  074%=      5-min Rain = 0
KME1 100507Z 19011KT 16/11 A2983 RMK A01 T01570112  RH  074%=      5-min Rain = 0
KME1 100508Z 19012KT 16/11 A2983 RMK A01 T01570112  RH  075%=      5-min Rain = 0
KME1 100509Z 19011KT 16/11 A2983 RMK A01 T01570113  RH  075%=      5-min Rain = 0
KME1 100510Z 19011KT 16/11 A2983 RMK A01 T01570112  RH  075%=      5-min Rain = 0
KME1 100511Z 19011KT 16/11 A2983 RMK A01 T01560113  RH  075%=      5-min Rain = 0
KME1 100512Z 20010KT 16/11 A2983 RMK A01 T01560112  RH  075%=      5-min Rain = 0
KME1 100513Z 19010KT 16/11 A2983 RMK A01 T01550112  RH  075%=      5-min Rain = 0
KME1 100514Z 19009KT 16/11 A2983 RMK A01 T01550112  RH  076%=      5-min Rain = 0
KME1 100515Z 19012KT 15/11 A2983 RMK A01 T01540112  RH  076%=      5-min Rain = 0
KME1 100516Z 19010KT 15/11 A2983 RMK A01 T01540113  RH  076%=      5-min Rain = 0
KME1 100517Z 19011KT 15/11 A2983 RMK A01 T01540112  RH  076%=      5-min Rain = 0
KME1 100518Z 19011KT 15/11 A2983 RMK A01 T01540113  RH  076%=      5-min Rain = 0
KME1 100519Z 19011KT 15/11 A2983 RMK A01 T01540113  RH  076%=      5-min Rain = 0
KME1 100520Z 19010KT 15/11 A2983 RMK A01 T01540113  RH  076%=      5-min Rain = 0
KME1 100521Z 19009KT 15/11 A2983 RMK A01 T01540113  RH  076%=      5-min Rain = 0
KME1 100522Z 19010KT 15/11 A2983 RMK A01 T01530113  RH  077%=      5-min Rain = 0
KME1 100523Z 19010KT 15/11 A2983 RMK A01 T01530112  RH  077%=      5-min Rain = 0
KME1 100524Z 19011KT 15/11 A2983 RMK A01 T01530113  RH  077%=      5-min Rain = 0
KME1 100525Z 20010KT 15/11 A2983 RMK A01 T01520112  RH  077%=      5-min Rain = 0
KME1 100526Z 20011KT 15/11 A2983 RMK A01 T01520112  RH  077%=      5-min Rain = 0
KME1 100527Z 20012KT 15/11 A2983 RMK A01 T01520112  RH  077%=      5-min Rain = 0
KME1 100528Z 20012KT 15/11 A2983 RMK A01 T01510113  RH  078%=      5-min Rain = 0
KME1 100529Z 19012KT 15/11 A2983 RMK A01 T01520113  RH  078%=      5-min Rain = 0
KME1 100530Z 20012KT 15/11 A2983 RMK A01 T01520113  RH  078%=      5-min Rain = 0
KME1 100531Z 20011G16KT 15/11 A2983 RMK A01 T01520113  RH  078%=      5-min Rain = 0
KME1 100532Z 20012KT 15/11 A2983 RMK A01 T01520114  RH  078%=      5-min Rain = 0
KME1 100533Z 19012KT 15/11 A2983 RMK A01 T01520114  RH  078%=      5-min Rain = 0
KME1 100534Z 19012KT 15/11 A2983 RMK A01 T01520114  RH  078%=      5-min Rain = 0
KME1 100535Z 20012KT 15/11 A2983 RMK A01 T01520114  RH  078%=      5-min Rain = 0
KME1 100536Z 19013KT 15/11 A2983 RMK A01 T01520114  RH  078%=      5-min Rain = 0
KME1 100537Z 20012KT 15/12 A2983 RMK A01 T01520115  RH  078%=      5-min Rain = 0
KME1 100538Z 19013KT 15/11 A2983 RMK A01 T01520114  RH  078%=      5-min Rain = 0
KME1 100539Z 20013KT 15/12 A2983 RMK A01 T01520115  RH  078%=      5-min Rain = 0
KME1 100540Z 19010KT 15/12 A2983 RMK A01 T01520115  RH  078%=      5-min Rain = 0
KME1 100541Z 19013KT 15/12 A2983 RMK A01 T01520115  RH  078%=      5-min Rain = 0
KME1 100542Z 19012KT 15/12 A2983 RMK A01 T01520115  RH  079%=      5-min Rain = 0
KME1 100543Z 19012KT 15/12 A2983 RMK A01 T01510115  RH  079%=      5-min Rain = 0
KME1 100544Z 19012KT 15/12 A2983 RMK A01 T01520115  RH  079%=      5-min Rain = 0
KME1 100545Z 19012G17KT 15/12 A2983 RMK A01 T01510115  RH  079%=      5-min Rain = 0
KME1 100546Z 20013KT 15/12 A2983 RMK A01 T01510115  RH  079%=      5-min Rain = 0
KME1 100547Z 19012KT 15/12 A2983 RMK A01 T01510115  RH  079%=      5-min Rain = 0
KME1 100548Z 19012KT 15/12 A2983 RMK A01 T01510115  RH  079%=      5-min Rain = 0
KME1 100549Z 19013KT 15/12 A2982 RMK A01 T01510115  RH  079%=      5-min Rain = 0
KME1 100550Z 20013KT 15/12 A2982 RMK A01 T01510115  RH  079%=      5-min Rain = 0
KME1 100551Z 19012KT 15/12 A2982 RMK A01 T01500115  RH  079%=      5-min Rain = 0
KME1 100552Z 19010KT 15/12 A2982 RMK A01 T01510116  RH  079%=      5-min Rain = 0
KME1 100553Z 19012G17KT 15/12 A2982 RMK A01 T01500116  RH  080%=      5-min Rain = 0
KME1 100554Z 19013KT 15/12 A2982 RMK A01 T01500116  RH  080%=      5-min Rain = 0
KME1 100555Z 19012KT 15/12 A2982 RMK A01 T01500116  RH  080%=      5-min Rain = 0
KME1 100556Z 19013KT 15/12 A2982 RMK A01 T01500116  RH  080%=      5-min Rain = 0
KME1 100557Z 19013KT 15/12 A2982 RMK A01 T01500116  RH  080%=      5-min Rain = 0
KME1 100558Z 19012KT 15/12 A2982 RMK A01 T01500116  RH  080%=      5-min Rain = 0
KME1 100559Z 19012KT 15/12 A2982 RMK A01 T01500116  RH  080%=      5-min Rain = 0

Page generated in 0.0863 seconds.